<?xml version="1.0" encoding="UTF-8" standalone="no" ?>
<gpx xmlns="http://www.topografix.com/GPX/1/1" xmlns:xsi="http://www.w3.org/2001/XMLSchema-instance" xsi:schemaLocation="http://www.topografix.com/GPX/1/1 http://www.topografix.com/GPX/1/1/gpx.xsd" version="1.1" creator="VisuGPX - https://www.visugpx.com">
  <metadata>
    <name>Tour du mont Brian VTT</name>
    <desc><![CDATA[Tour du mont Brian VTT]]></desc>
  </metadata>
  <trk>
    <name><![CDATA[Tour du mont Brian]]></name>
    <trkseg>
      <trkpt lat="44.77786" lon="4.84254">
        <ele>111.65</ele>
        <time>2015-12-15T12:25:59Z</time>
      </trkpt>
      <trkpt lat="44.77783" lon="4.84256">
        <ele>112.13</ele>
        <time>2015-12-15T12:26:27Z</time>
      </trkpt>
      <trkpt lat="44.77787" lon="4.84246">
        <ele>112.13</ele>
        <time>2015-12-15T12:27:03Z</time>
      </trkpt>
      <trkpt lat="44.77789" lon="4.84247">
        <ele>112.13</ele>
        <time>2015-12-15T12:27:37Z</time>
      </trkpt>
      <trkpt lat="44.77785" lon="4.84253">
        <ele>113.09</ele>
        <time>2015-12-15T12:28:13Z</time>
      </trkpt>
      <trkpt lat="44.77785" lon="4.84257">
        <ele>113.57</ele>
        <time>2015-12-15T12:28:49Z</time>
      </trkpt>
      <trkpt lat="44.77786" lon="4.84254">
        <ele>114.05</ele>
        <time>2015-12-15T12:29:14Z</time>
      </trkpt>
      <trkpt lat="44.77779" lon="4.84252">
        <ele>114.05</ele>
        <time>2015-12-15T12:29:49Z</time>
      </trkpt>
      <trkpt lat="44.77781" lon="4.84253">
        <ele>114.05</ele>
        <time>2015-12-15T12:30:15Z</time>
      </trkpt>
      <trkpt lat="44.77783" lon="4.84254">
        <ele>115.01</ele>
        <time>2015-12-15T12:30:48Z</time>
      </trkpt>
      <trkpt lat="44.77785" lon="4.8425">
        <ele>115.5</ele>
        <time>2015-12-15T12:31:26Z</time>
      </trkpt>
      <trkpt lat="44.77787" lon="4.84251">
        <ele>115.5</ele>
        <time>2015-12-15T12:31:56Z</time>
      </trkpt>
      <trkpt lat="44.77788" lon="4.84248">
        <ele>115.98</ele>
        <time>2015-12-15T12:32:24Z</time>
      </trkpt>
      <trkpt lat="44.77786" lon="4.84246">
        <ele>115.98</ele>
        <time>2015-12-15T12:33:02Z</time>
      </trkpt>
      <trkpt lat="44.77784" lon="4.84252">
        <ele>116.46</ele>
        <time>2015-12-15T12:33:35Z</time>
      </trkpt>
      <trkpt lat="44.77786" lon="4.84251">
        <ele>116.46</ele>
        <time>2015-12-15T12:34:11Z</time>
      </trkpt>
      <trkpt lat="44.77783" lon="4.84253">
        <ele>116.94</ele>
        <time>2015-12-15T12:34:47Z</time>
      </trkpt>
      <trkpt lat="44.77783" lon="4.84253">
        <ele>116.94</ele>
        <time>2015-12-15T12:34:49Z</time>
      </trkpt>
      <trkpt lat="44.77783" lon="4.84251">
        <ele>117.42</ele>
        <time>2015-12-15T12:35:03Z</time>
      </trkpt>
      <trkpt lat="44.77781" lon="4.84261">
        <ele>117.42</ele>
        <time>2015-12-15T12:35:27Z</time>
      </trkpt>
      <trkpt lat="44.77782" lon="4.8426">
        <ele>117.9</ele>
        <time>2015-12-15T12:35:55Z</time>
      </trkpt>
      <trkpt lat="44.77789" lon="4.84242">
        <ele>118.38</ele>
        <time>2015-12-15T12:36:05Z</time>
      </trkpt>
      <trkpt lat="44.7779" lon="4.84237">
        <ele>117.9</ele>
        <time>2015-12-15T12:36:08Z</time>
      </trkpt>
      <trkpt lat="44.77787" lon="4.84233">
        <ele>118.86</ele>
        <time>2015-12-15T12:36:11Z</time>
      </trkpt>
      <trkpt lat="44.77785" lon="4.84232">
        <ele>118.86</ele>
        <time>2015-12-15T12:36:12Z</time>
      </trkpt>
      <trkpt lat="44.77782" lon="4.8423">
        <ele>118.86</ele>
        <time>2015-12-15T12:36:13Z</time>
      </trkpt>
      <trkpt lat="44.77747" lon="4.84216">
        <ele>119.34</ele>
        <time>2015-12-15T12:36:25Z</time>
      </trkpt>
      <trkpt lat="44.77722" lon="4.84198">
        <ele>119.34</ele>
        <time>2015-12-15T12:36:32Z</time>
      </trkpt>
      <trkpt lat="44.77708" lon="4.84191">
        <ele>119.82</ele>
        <time>2015-12-15T12:36:35Z</time>
      </trkpt>
      <trkpt lat="44.77672" lon="4.8418">
        <ele>119.82</ele>
        <time>2015-12-15T12:36:44Z</time>
      </trkpt>
      <trkpt lat="44.77609" lon="4.84165">
        <ele>120.3</ele>
        <time>2015-12-15T12:36:59Z</time>
      </trkpt>
      <trkpt lat="44.77552" lon="4.84159">
        <ele>120.78</ele>
        <time>2015-12-15T12:37:12Z</time>
      </trkpt>
      <trkpt lat="44.77493" lon="4.84149">
        <ele>121.26</ele>
        <time>2015-12-15T12:37:27Z</time>
      </trkpt>
      <trkpt lat="44.77455" lon="4.84146">
        <ele>120.78</ele>
        <time>2015-12-15T12:37:41Z</time>
      </trkpt>
      <trkpt lat="44.77452" lon="4.84145">
        <ele>121.26</ele>
        <time>2015-12-15T12:37:45Z</time>
      </trkpt>
      <trkpt lat="44.7745" lon="4.84145">
        <ele>121.26</ele>
        <time>2015-12-15T12:37:46Z</time>
      </trkpt>
      <trkpt lat="44.77448" lon="4.84145">
        <ele>121.26</ele>
        <time>2015-12-15T12:37:47Z</time>
      </trkpt>
      <trkpt lat="44.77446" lon="4.84145">
        <ele>121.74</ele>
        <time>2015-12-15T12:37:48Z</time>
      </trkpt>
      <trkpt lat="44.77444" lon="4.84145">
        <ele>121.74</ele>
        <time>2015-12-15T12:37:49Z</time>
      </trkpt>
      <trkpt lat="44.77428" lon="4.8414">
        <ele>121.26</ele>
        <time>2015-12-15T12:38:01Z</time>
      </trkpt>
      <trkpt lat="44.7743" lon="4.8414">
        <ele>121.26</ele>
        <time>2015-12-15T12:38:20Z</time>
      </trkpt>
      <trkpt lat="44.77427" lon="4.8413">
        <ele>121.74</ele>
        <time>2015-12-15T12:38:41Z</time>
      </trkpt>
      <trkpt lat="44.77411" lon="4.84126">
        <ele>123.19</ele>
        <time>2015-12-15T12:38:58Z</time>
      </trkpt>
      <trkpt lat="44.77408" lon="4.84124">
        <ele>122.71</ele>
        <time>2015-12-15T12:38:59Z</time>
      </trkpt>
      <trkpt lat="44.77403" lon="4.84121">
        <ele>122.71</ele>
        <time>2015-12-15T12:39:00Z</time>
      </trkpt>
      <trkpt lat="44.77399" lon="4.8412">
        <ele>122.71</ele>
        <time>2015-12-15T12:39:01Z</time>
      </trkpt>
      <trkpt lat="44.77395" lon="4.84119">
        <ele>123.19</ele>
        <time>2015-12-15T12:39:02Z</time>
      </trkpt>
      <trkpt lat="44.77392" lon="4.84121">
        <ele>123.19</ele>
        <time>2015-12-15T12:39:03Z</time>
      </trkpt>
      <trkpt lat="44.7737" lon="4.84117">
        <ele>123.19</ele>
        <time>2015-12-15T12:39:14Z</time>
      </trkpt>
      <trkpt lat="44.77351" lon="4.84115">
        <ele>123.67</ele>
        <time>2015-12-15T12:39:23Z</time>
      </trkpt>
      <trkpt lat="44.77302" lon="4.84107">
        <ele>124.15</ele>
        <time>2015-12-15T12:39:36Z</time>
      </trkpt>
      <trkpt lat="44.7725" lon="4.84105">
        <ele>124.15</ele>
        <time>2015-12-15T12:39:49Z</time>
      </trkpt>
      <trkpt lat="44.77184" lon="4.84094">
        <ele>127.03</ele>
        <time>2015-12-15T12:40:02Z</time>
      </trkpt>
      <trkpt lat="44.77113" lon="4.84076">
        <ele>126.07</ele>
        <time>2015-12-15T12:40:17Z</time>
      </trkpt>
      <trkpt lat="44.77057" lon="4.84073">
        <ele>126.55</ele>
        <time>2015-12-15T12:40:31Z</time>
      </trkpt>
      <trkpt lat="44.77031" lon="4.84069">
        <ele>126.07</ele>
        <time>2015-12-15T12:40:42Z</time>
      </trkpt>
      <trkpt lat="44.77021" lon="4.84073">
        <ele>127.03</ele>
        <time>2015-12-15T12:40:48Z</time>
      </trkpt>
      <trkpt lat="44.76965" lon="4.84063">
        <ele>127.03</ele>
        <time>2015-12-15T12:41:02Z</time>
      </trkpt>
      <trkpt lat="44.76917" lon="4.84041">
        <ele>126.55</ele>
        <time>2015-12-15T12:41:15Z</time>
      </trkpt>
      <trkpt lat="44.76905" lon="4.84039">
        <ele>126.07</ele>
        <time>2015-12-15T12:41:18Z</time>
      </trkpt>
      <trkpt lat="44.769" lon="4.84038">
        <ele>126.55</ele>
        <time>2015-12-15T12:41:19Z</time>
      </trkpt>
      <trkpt lat="44.76895" lon="4.84039">
        <ele>125.59</ele>
        <time>2015-12-15T12:41:20Z</time>
      </trkpt>
      <trkpt lat="44.76856" lon="4.8404">
        <ele>126.55</ele>
        <time>2015-12-15T12:41:30Z</time>
      </trkpt>
      <trkpt lat="44.76853" lon="4.84039">
        <ele>126.07</ele>
        <time>2015-12-15T12:41:31Z</time>
      </trkpt>
      <trkpt lat="44.76851" lon="4.8404">
        <ele>126.55</ele>
        <time>2015-12-15T12:41:32Z</time>
      </trkpt>
      <trkpt lat="44.76847" lon="4.84043">
        <ele>127.51</ele>
        <time>2015-12-15T12:41:35Z</time>
      </trkpt>
      <trkpt lat="44.76846" lon="4.84045">
        <ele>127.99</ele>
        <time>2015-12-15T12:41:36Z</time>
      </trkpt>
      <trkpt lat="44.76841" lon="4.84058">
        <ele>128.95</ele>
        <time>2015-12-15T12:41:40Z</time>
      </trkpt>
      <trkpt lat="44.76809" lon="4.84065">
        <ele>129.43</ele>
        <time>2015-12-15T12:41:53Z</time>
      </trkpt>
      <trkpt lat="44.7679" lon="4.84064">
        <ele>130.4</ele>
        <time>2015-12-15T12:42:04Z</time>
      </trkpt>
      <trkpt lat="44.76744" lon="4.84048">
        <ele>131.84</ele>
        <time>2015-12-15T12:42:19Z</time>
      </trkpt>
      <trkpt lat="44.76694" lon="4.8403">
        <ele>133.76</ele>
        <time>2015-12-15T12:42:34Z</time>
      </trkpt>
      <trkpt lat="44.76637" lon="4.84008">
        <ele>137.13</ele>
        <time>2015-12-15T12:42:50Z</time>
      </trkpt>
      <trkpt lat="44.76532" lon="4.83966">
        <ele>136.16</ele>
        <time>2015-12-15T12:43:08Z</time>
      </trkpt>
      <trkpt lat="44.76468" lon="4.83941">
        <ele>134.24</ele>
        <time>2015-12-15T12:43:19Z</time>
      </trkpt>
      <trkpt lat="44.76397" lon="4.83914">
        <ele>130.4</ele>
        <time>2015-12-15T12:43:30Z</time>
      </trkpt>
      <trkpt lat="44.76299" lon="4.83878">
        <ele>128.95</ele>
        <time>2015-12-15T12:43:47Z</time>
      </trkpt>
      <trkpt lat="44.76233" lon="4.8385">
        <ele>129.92</ele>
        <time>2015-12-15T12:44:01Z</time>
      </trkpt>
      <trkpt lat="44.76228" lon="4.83847">
        <ele>130.4</ele>
        <time>2015-12-15T12:44:02Z</time>
      </trkpt>
      <trkpt lat="44.76224" lon="4.83844">
        <ele>130.4</ele>
        <time>2015-12-15T12:44:03Z</time>
      </trkpt>
      <trkpt lat="44.76219" lon="4.83839">
        <ele>130.88</ele>
        <time>2015-12-15T12:44:04Z</time>
      </trkpt>
      <trkpt lat="44.76214" lon="4.83834">
        <ele>130.88</ele>
        <time>2015-12-15T12:44:05Z</time>
      </trkpt>
      <trkpt lat="44.7621" lon="4.83828">
        <ele>130.88</ele>
        <time>2015-12-15T12:44:06Z</time>
      </trkpt>
      <trkpt lat="44.76207" lon="4.83821">
        <ele>130.88</ele>
        <time>2015-12-15T12:44:07Z</time>
      </trkpt>
      <trkpt lat="44.76199" lon="4.8381">
        <ele>131.36</ele>
        <time>2015-12-15T12:44:09Z</time>
      </trkpt>
      <trkpt lat="44.76193" lon="4.83805">
        <ele>131.36</ele>
        <time>2015-12-15T12:44:10Z</time>
      </trkpt>
      <trkpt lat="44.76188" lon="4.83803">
        <ele>131.84</ele>
        <time>2015-12-15T12:44:11Z</time>
      </trkpt>
      <trkpt lat="44.76182" lon="4.83803">
        <ele>131.36</ele>
        <time>2015-12-15T12:44:12Z</time>
      </trkpt>
      <trkpt lat="44.76176" lon="4.83804">
        <ele>131.84</ele>
        <time>2015-12-15T12:44:13Z</time>
      </trkpt>
      <trkpt lat="44.76171" lon="4.83806">
        <ele>131.36</ele>
        <time>2015-12-15T12:44:14Z</time>
      </trkpt>
      <trkpt lat="44.76166" lon="4.83811">
        <ele>132.32</ele>
        <time>2015-12-15T12:44:15Z</time>
      </trkpt>
      <trkpt lat="44.76162" lon="4.83816">
        <ele>132.32</ele>
        <time>2015-12-15T12:44:16Z</time>
      </trkpt>
      <trkpt lat="44.76159" lon="4.83823">
        <ele>132.32</ele>
        <time>2015-12-15T12:44:17Z</time>
      </trkpt>
      <trkpt lat="44.76157" lon="4.83829">
        <ele>131.84</ele>
        <time>2015-12-15T12:44:18Z</time>
      </trkpt>
      <trkpt lat="44.76155" lon="4.83835">
        <ele>132.32</ele>
        <time>2015-12-15T12:44:19Z</time>
      </trkpt>
      <trkpt lat="44.76153" lon="4.83842">
        <ele>132.32</ele>
        <time>2015-12-15T12:44:20Z</time>
      </trkpt>
      <trkpt lat="44.7615" lon="4.83848">
        <ele>132.32</ele>
        <time>2015-12-15T12:44:21Z</time>
      </trkpt>
      <trkpt lat="44.76147" lon="4.83853">
        <ele>132.32</ele>
        <time>2015-12-15T12:44:22Z</time>
      </trkpt>
      <trkpt lat="44.76143" lon="4.83855">
        <ele>132.8</ele>
        <time>2015-12-15T12:44:23Z</time>
      </trkpt>
      <trkpt lat="44.76139" lon="4.83857">
        <ele>132.32</ele>
        <time>2015-12-15T12:44:24Z</time>
      </trkpt>
      <trkpt lat="44.76135" lon="4.83859">
        <ele>132.8</ele>
        <time>2015-12-15T12:44:25Z</time>
      </trkpt>
      <trkpt lat="44.7613" lon="4.83859">
        <ele>132.32</ele>
        <time>2015-12-15T12:44:26Z</time>
      </trkpt>
      <trkpt lat="44.76125" lon="4.83859">
        <ele>132.8</ele>
        <time>2015-12-15T12:44:27Z</time>
      </trkpt>
      <trkpt lat="44.7612" lon="4.83857">
        <ele>132.32</ele>
        <time>2015-12-15T12:44:28Z</time>
      </trkpt>
      <trkpt lat="44.76116" lon="4.83854">
        <ele>132.32</ele>
        <time>2015-12-15T12:44:29Z</time>
      </trkpt>
      <trkpt lat="44.76112" lon="4.8385">
        <ele>132.32</ele>
        <time>2015-12-15T12:44:30Z</time>
      </trkpt>
      <trkpt lat="44.76108" lon="4.83845">
        <ele>131.84</ele>
        <time>2015-12-15T12:44:31Z</time>
      </trkpt>
      <trkpt lat="44.76106" lon="4.8384">
        <ele>131.84</ele>
        <time>2015-12-15T12:44:32Z</time>
      </trkpt>
      <trkpt lat="44.76104" lon="4.83834">
        <ele>131.84</ele>
        <time>2015-12-15T12:44:33Z</time>
      </trkpt>
      <trkpt lat="44.76101" lon="4.83829">
        <ele>131.84</ele>
        <time>2015-12-15T12:44:34Z</time>
      </trkpt>
      <trkpt lat="44.761" lon="4.83823">
        <ele>132.32</ele>
        <time>2015-12-15T12:44:35Z</time>
      </trkpt>
      <trkpt lat="44.76086" lon="4.83777">
        <ele>132.32</ele>
        <time>2015-12-15T12:44:43Z</time>
      </trkpt>
      <trkpt lat="44.76083" lon="4.83772">
        <ele>132.8</ele>
        <time>2015-12-15T12:44:44Z</time>
      </trkpt>
      <trkpt lat="44.7608" lon="4.83767">
        <ele>132.32</ele>
        <time>2015-12-15T12:44:45Z</time>
      </trkpt>
      <trkpt lat="44.76076" lon="4.83763">
        <ele>132.8</ele>
        <time>2015-12-15T12:44:46Z</time>
      </trkpt>
      <trkpt lat="44.76073" lon="4.83759">
        <ele>132.8</ele>
        <time>2015-12-15T12:44:47Z</time>
      </trkpt>
      <trkpt lat="44.76069" lon="4.83755">
        <ele>133.28</ele>
        <time>2015-12-15T12:44:48Z</time>
      </trkpt>
      <trkpt lat="44.76065" lon="4.83752">
        <ele>132.8</ele>
        <time>2015-12-15T12:44:49Z</time>
      </trkpt>
      <trkpt lat="44.76062" lon="4.83749">
        <ele>132.8</ele>
        <time>2015-12-15T12:44:50Z</time>
      </trkpt>
      <trkpt lat="44.76058" lon="4.83747">
        <ele>132.8</ele>
        <time>2015-12-15T12:44:51Z</time>
      </trkpt>
      <trkpt lat="44.76054" lon="4.83745">
        <ele>132.8</ele>
        <time>2015-12-15T12:44:52Z</time>
      </trkpt>
      <trkpt lat="44.76" lon="4.83688">
        <ele>133.28</ele>
        <time>2015-12-15T12:45:08Z</time>
      </trkpt>
      <trkpt lat="44.75989" lon="4.83674">
        <ele>132.8</ele>
        <time>2015-12-15T12:45:11Z</time>
      </trkpt>
      <trkpt lat="44.75986" lon="4.8367">
        <ele>132.8</ele>
        <time>2015-12-15T12:45:12Z</time>
      </trkpt>
      <trkpt lat="44.75981" lon="4.83666">
        <ele>132.8</ele>
        <time>2015-12-15T12:45:13Z</time>
      </trkpt>
      <trkpt lat="44.75977" lon="4.83663">
        <ele>132.8</ele>
        <time>2015-12-15T12:45:14Z</time>
      </trkpt>
      <trkpt lat="44.75973" lon="4.83661">
        <ele>133.28</ele>
        <time>2015-12-15T12:45:15Z</time>
      </trkpt>
      <trkpt lat="44.75954" lon="4.83648">
        <ele>132.8</ele>
        <time>2015-12-15T12:45:20Z</time>
      </trkpt>
      <trkpt lat="44.75951" lon="4.83643">
        <ele>133.28</ele>
        <time>2015-12-15T12:45:21Z</time>
      </trkpt>
      <trkpt lat="44.7595" lon="4.83638">
        <ele>133.28</ele>
        <time>2015-12-15T12:45:22Z</time>
      </trkpt>
      <trkpt lat="44.75949" lon="4.83632">
        <ele>133.28</ele>
        <time>2015-12-15T12:45:23Z</time>
      </trkpt>
      <trkpt lat="44.75948" lon="4.83626">
        <ele>133.76</ele>
        <time>2015-12-15T12:45:24Z</time>
      </trkpt>
      <trkpt lat="44.75945" lon="4.83622">
        <ele>133.76</ele>
        <time>2015-12-15T12:45:25Z</time>
      </trkpt>
      <trkpt lat="44.75942" lon="4.83618">
        <ele>133.76</ele>
        <time>2015-12-15T12:45:26Z</time>
      </trkpt>
      <trkpt lat="44.75938" lon="4.83615">
        <ele>133.76</ele>
        <time>2015-12-15T12:45:27Z</time>
      </trkpt>
      <trkpt lat="44.75934" lon="4.83613">
        <ele>133.28</ele>
        <time>2015-12-15T12:45:28Z</time>
      </trkpt>
      <trkpt lat="44.7593" lon="4.83612">
        <ele>133.76</ele>
        <time>2015-12-15T12:45:29Z</time>
      </trkpt>
      <trkpt lat="44.75926" lon="4.83612">
        <ele>133.76</ele>
        <time>2015-12-15T12:45:30Z</time>
      </trkpt>
      <trkpt lat="44.75922" lon="4.83612">
        <ele>133.28</ele>
        <time>2015-12-15T12:45:31Z</time>
      </trkpt>
      <trkpt lat="44.75917" lon="4.83612">
        <ele>133.28</ele>
        <time>2015-12-15T12:45:32Z</time>
      </trkpt>
      <trkpt lat="44.75913" lon="4.83611">
        <ele>133.76</ele>
        <time>2015-12-15T12:45:33Z</time>
      </trkpt>
      <trkpt lat="44.75909" lon="4.8361">
        <ele>134.24</ele>
        <time>2015-12-15T12:45:34Z</time>
      </trkpt>
      <trkpt lat="44.75888" lon="4.83604">
        <ele>133.76</ele>
        <time>2015-12-15T12:45:39Z</time>
      </trkpt>
      <trkpt lat="44.75884" lon="4.83604">
        <ele>133.28</ele>
        <time>2015-12-15T12:45:40Z</time>
      </trkpt>
      <trkpt lat="44.75835" lon="4.83631">
        <ele>135.2</ele>
        <time>2015-12-15T12:45:54Z</time>
      </trkpt>
      <trkpt lat="44.7578" lon="4.83643">
        <ele>136.64</ele>
        <time>2015-12-15T12:46:09Z</time>
      </trkpt>
      <trkpt lat="44.75738" lon="4.83634">
        <ele>138.09</ele>
        <time>2015-12-15T12:46:22Z</time>
      </trkpt>
      <trkpt lat="44.7568" lon="4.83622">
        <ele>140.01</ele>
        <time>2015-12-15T12:46:41Z</time>
      </trkpt>
      <trkpt lat="44.75674" lon="4.83618">
        <ele>140.97</ele>
        <time>2015-12-15T12:46:44Z</time>
      </trkpt>
      <trkpt lat="44.75674" lon="4.83615">
        <ele>140.49</ele>
        <time>2015-12-15T12:46:45Z</time>
      </trkpt>
      <trkpt lat="44.75674" lon="4.83612">
        <ele>140.97</ele>
        <time>2015-12-15T12:46:46Z</time>
      </trkpt>
      <trkpt lat="44.75666" lon="4.83534">
        <ele>140.97</ele>
        <time>2015-12-15T12:47:02Z</time>
      </trkpt>
      <trkpt lat="44.75655" lon="4.83428">
        <ele>139.53</ele>
        <time>2015-12-15T12:47:20Z</time>
      </trkpt>
      <trkpt lat="44.75636" lon="4.83336">
        <ele>138.57</ele>
        <time>2015-12-15T12:47:34Z</time>
      </trkpt>
      <trkpt lat="44.75609" lon="4.83195">
        <ele>136.16</ele>
        <time>2015-12-15T12:47:53Z</time>
      </trkpt>
      <trkpt lat="44.75581" lon="4.83063">
        <ele>134.72</ele>
        <time>2015-12-15T12:48:10Z</time>
      </trkpt>
      <trkpt lat="44.75565" lon="4.82958">
        <ele>131.36</ele>
        <time>2015-12-15T12:48:22Z</time>
      </trkpt>
      <trkpt lat="44.75553" lon="4.82836">
        <ele>127.99</ele>
        <time>2015-12-15T12:48:35Z</time>
      </trkpt>
      <trkpt lat="44.75549" lon="4.8279">
        <ele>124.63</ele>
        <time>2015-12-15T12:48:46Z</time>
      </trkpt>
      <trkpt lat="44.75544" lon="4.82788">
        <ele>125.11</ele>
        <time>2015-12-15T12:49:13Z</time>
      </trkpt>
      <trkpt lat="44.75542" lon="4.82791">
        <ele>125.11</ele>
        <time>2015-12-15T12:49:38Z</time>
      </trkpt>
      <trkpt lat="44.75542" lon="4.82788">
        <ele>125.11</ele>
        <time>2015-12-15T12:49:45Z</time>
      </trkpt>
      <trkpt lat="44.75542" lon="4.82785">
        <ele>125.11</ele>
        <time>2015-12-15T12:49:46Z</time>
      </trkpt>
      <trkpt lat="44.75542" lon="4.8278">
        <ele>125.11</ele>
        <time>2015-12-15T12:49:47Z</time>
      </trkpt>
      <trkpt lat="44.75542" lon="4.82775">
        <ele>124.63</ele>
        <time>2015-12-15T12:49:48Z</time>
      </trkpt>
      <trkpt lat="44.75542" lon="4.82769">
        <ele>124.63</ele>
        <time>2015-12-15T12:49:49Z</time>
      </trkpt>
      <trkpt lat="44.75541" lon="4.82762">
        <ele>124.63</ele>
        <time>2015-12-15T12:49:50Z</time>
      </trkpt>
      <trkpt lat="44.7554" lon="4.82755">
        <ele>124.63</ele>
        <time>2015-12-15T12:49:51Z</time>
      </trkpt>
      <trkpt lat="44.75537" lon="4.82743">
        <ele>125.11</ele>
        <time>2015-12-15T12:49:53Z</time>
      </trkpt>
      <trkpt lat="44.75535" lon="4.82737">
        <ele>125.59</ele>
        <time>2015-12-15T12:49:54Z</time>
      </trkpt>
      <trkpt lat="44.75532" lon="4.82732">
        <ele>125.11</ele>
        <time>2015-12-15T12:49:55Z</time>
      </trkpt>
      <trkpt lat="44.7553" lon="4.82727">
        <ele>124.63</ele>
        <time>2015-12-15T12:49:56Z</time>
      </trkpt>
      <trkpt lat="44.75526" lon="4.82722">
        <ele>125.59</ele>
        <time>2015-12-15T12:49:57Z</time>
      </trkpt>
      <trkpt lat="44.75523" lon="4.82717">
        <ele>125.11</ele>
        <time>2015-12-15T12:49:58Z</time>
      </trkpt>
      <trkpt lat="44.75521" lon="4.82711">
        <ele>124.63</ele>
        <time>2015-12-15T12:49:59Z</time>
      </trkpt>
      <trkpt lat="44.75518" lon="4.82705">
        <ele>124.63</ele>
        <time>2015-12-15T12:50:00Z</time>
      </trkpt>
      <trkpt lat="44.7547" lon="4.82615">
        <ele>125.11</ele>
        <time>2015-12-15T12:50:15Z</time>
      </trkpt>
      <trkpt lat="44.75435" lon="4.82559">
        <ele>125.59</ele>
        <time>2015-12-15T12:50:26Z</time>
      </trkpt>
      <trkpt lat="44.75395" lon="4.82487">
        <ele>126.07</ele>
        <time>2015-12-15T12:50:40Z</time>
      </trkpt>
      <trkpt lat="44.75349" lon="4.82411">
        <ele>125.59</ele>
        <time>2015-12-15T12:50:56Z</time>
      </trkpt>
      <trkpt lat="44.75301" lon="4.82343">
        <ele>127.51</ele>
        <time>2015-12-15T12:51:11Z</time>
      </trkpt>
      <trkpt lat="44.75299" lon="4.8232">
        <ele>127.03</ele>
        <time>2015-12-15T12:51:15Z</time>
      </trkpt>
      <trkpt lat="44.75298" lon="4.82313">
        <ele>127.03</ele>
        <time>2015-12-15T12:51:16Z</time>
      </trkpt>
      <trkpt lat="44.75281" lon="4.82224">
        <ele>125.11</ele>
        <time>2015-12-15T12:51:30Z</time>
      </trkpt>
      <trkpt lat="44.7528" lon="4.82193">
        <ele>125.11</ele>
        <time>2015-12-15T12:51:34Z</time>
      </trkpt>
      <trkpt lat="44.75262" lon="4.82127">
        <ele>123.67</ele>
        <time>2015-12-15T12:51:44Z</time>
      </trkpt>
      <trkpt lat="44.75259" lon="4.8212">
        <ele>123.67</ele>
        <time>2015-12-15T12:51:45Z</time>
      </trkpt>
      <trkpt lat="44.75255" lon="4.82115">
        <ele>124.15</ele>
        <time>2015-12-15T12:51:46Z</time>
      </trkpt>
      <trkpt lat="44.75252" lon="4.82111">
        <ele>123.67</ele>
        <time>2015-12-15T12:51:47Z</time>
      </trkpt>
      <trkpt lat="44.75249" lon="4.82107">
        <ele>123.67</ele>
        <time>2015-12-15T12:51:48Z</time>
      </trkpt>
      <trkpt lat="44.7524" lon="4.82087">
        <ele>123.67</ele>
        <time>2015-12-15T12:51:52Z</time>
      </trkpt>
      <trkpt lat="44.75236" lon="4.82083">
        <ele>123.19</ele>
        <time>2015-12-15T12:51:53Z</time>
      </trkpt>
      <trkpt lat="44.75223" lon="4.82072">
        <ele>123.19</ele>
        <time>2015-12-15T12:51:56Z</time>
      </trkpt>
      <trkpt lat="44.7519" lon="4.82035">
        <ele>123.19</ele>
        <time>2015-12-15T12:52:08Z</time>
      </trkpt>
      <trkpt lat="44.75186" lon="4.82034">
        <ele>123.67</ele>
        <time>2015-12-15T12:52:09Z</time>
      </trkpt>
      <trkpt lat="44.75181" lon="4.82034">
        <ele>123.67</ele>
        <time>2015-12-15T12:52:10Z</time>
      </trkpt>
      <trkpt lat="44.75176" lon="4.82034">
        <ele>123.67</ele>
        <time>2015-12-15T12:52:11Z</time>
      </trkpt>
      <trkpt lat="44.75171" lon="4.82034">
        <ele>123.67</ele>
        <time>2015-12-15T12:52:12Z</time>
      </trkpt>
      <trkpt lat="44.75164" lon="4.82035">
        <ele>124.15</ele>
        <time>2015-12-15T12:52:13Z</time>
      </trkpt>
      <trkpt lat="44.75149" lon="4.8204">
        <ele>123.67</ele>
        <time>2015-12-15T12:52:16Z</time>
      </trkpt>
      <trkpt lat="44.75118" lon="4.82066">
        <ele>124.63</ele>
        <time>2015-12-15T12:52:26Z</time>
      </trkpt>
      <trkpt lat="44.75118" lon="4.82066">
        <ele>124.15</ele>
        <time>2015-12-15T12:52:27Z</time>
      </trkpt>
      <trkpt lat="44.7512" lon="4.82065">
        <ele>124.63</ele>
        <time>2015-12-15T12:52:28Z</time>
      </trkpt>
      <trkpt lat="44.75129" lon="4.8206">
        <ele>124.15</ele>
        <time>2015-12-15T12:52:33Z</time>
      </trkpt>
      <trkpt lat="44.75134" lon="4.82058">
        <ele>124.63</ele>
        <time>2015-12-15T12:52:37Z</time>
      </trkpt>
      <trkpt lat="44.75137" lon="4.82053">
        <ele>124.63</ele>
        <time>2015-12-15T12:52:39Z</time>
      </trkpt>
      <trkpt lat="44.75139" lon="4.8205">
        <ele>124.63</ele>
        <time>2015-12-15T12:52:40Z</time>
      </trkpt>
      <trkpt lat="44.75137" lon="4.82047">
        <ele>124.63</ele>
        <time>2015-12-15T12:52:41Z</time>
      </trkpt>
      <trkpt lat="44.75093" lon="4.82021">
        <ele>126.55</ele>
        <time>2015-12-15T12:52:55Z</time>
      </trkpt>
      <trkpt lat="44.75049" lon="4.81976">
        <ele>127.03</ele>
        <time>2015-12-15T12:53:05Z</time>
      </trkpt>
      <trkpt lat="44.75036" lon="4.81952">
        <ele>127.51</ele>
        <time>2015-12-15T12:53:09Z</time>
      </trkpt>
      <trkpt lat="44.75013" lon="4.81917">
        <ele>127.51</ele>
        <time>2015-12-15T12:53:15Z</time>
      </trkpt>
      <trkpt lat="44.74967" lon="4.8186">
        <ele>127.51</ele>
        <time>2015-12-15T12:53:24Z</time>
      </trkpt>
      <trkpt lat="44.74964" lon="4.81855">
        <ele>127.03</ele>
        <time>2015-12-15T12:53:25Z</time>
      </trkpt>
      <trkpt lat="44.74961" lon="4.81851">
        <ele>127.03</ele>
        <time>2015-12-15T12:53:26Z</time>
      </trkpt>
      <trkpt lat="44.74907" lon="4.81778">
        <ele>125.11</ele>
        <time>2015-12-15T12:53:38Z</time>
      </trkpt>
      <trkpt lat="44.74833" lon="4.81691">
        <ele>123.19</ele>
        <time>2015-12-15T12:53:51Z</time>
      </trkpt>
      <trkpt lat="44.74758" lon="4.81604">
        <ele>122.22</ele>
        <time>2015-12-15T12:54:06Z</time>
      </trkpt>
      <trkpt lat="44.747" lon="4.81528">
        <ele>123.19</ele>
        <time>2015-12-15T12:54:20Z</time>
      </trkpt>
      <trkpt lat="44.74689" lon="4.81512">
        <ele>123.67</ele>
        <time>2015-12-15T12:54:23Z</time>
      </trkpt>
      <trkpt lat="44.74666" lon="4.81482">
        <ele>124.15</ele>
        <time>2015-12-15T12:54:30Z</time>
      </trkpt>
      <trkpt lat="44.74662" lon="4.81478">
        <ele>124.63</ele>
        <time>2015-12-15T12:54:31Z</time>
      </trkpt>
      <trkpt lat="44.74659" lon="4.81474">
        <ele>124.63</ele>
        <time>2015-12-15T12:54:32Z</time>
      </trkpt>
      <trkpt lat="44.74657" lon="4.8147">
        <ele>124.63</ele>
        <time>2015-12-15T12:54:33Z</time>
      </trkpt>
      <trkpt lat="44.74655" lon="4.81467">
        <ele>124.63</ele>
        <time>2015-12-15T12:54:34Z</time>
      </trkpt>
      <trkpt lat="44.74653" lon="4.81464">
        <ele>125.11</ele>
        <time>2015-12-15T12:54:35Z</time>
      </trkpt>
      <trkpt lat="44.7465" lon="4.8146">
        <ele>125.11</ele>
        <time>2015-12-15T12:54:36Z</time>
      </trkpt>
      <trkpt lat="44.74603" lon="4.81419">
        <ele>126.55</ele>
        <time>2015-12-15T12:54:49Z</time>
      </trkpt>
      <trkpt lat="44.74554" lon="4.81383">
        <ele>128.95</ele>
        <time>2015-12-15T12:55:03Z</time>
      </trkpt>
      <trkpt lat="44.74513" lon="4.81358">
        <ele>129.92</ele>
        <time>2015-12-15T12:55:16Z</time>
      </trkpt>
      <trkpt lat="44.74471" lon="4.81339">
        <ele>131.84</ele>
        <time>2015-12-15T12:55:27Z</time>
      </trkpt>
      <trkpt lat="44.74446" lon="4.81333">
        <ele>131.36</ele>
        <time>2015-12-15T12:55:32Z</time>
      </trkpt>
      <trkpt lat="44.74442" lon="4.81334">
        <ele>130.88</ele>
        <time>2015-12-15T12:55:33Z</time>
      </trkpt>
      <trkpt lat="44.74438" lon="4.81335">
        <ele>130.88</ele>
        <time>2015-12-15T12:55:34Z</time>
      </trkpt>
      <trkpt lat="44.74425" lon="4.81331">
        <ele>130.4</ele>
        <time>2015-12-15T12:55:44Z</time>
      </trkpt>
      <trkpt lat="44.74401" lon="4.81324">
        <ele>129.92</ele>
        <time>2015-12-15T12:56:06Z</time>
      </trkpt>
      <trkpt lat="44.74401" lon="4.81323">
        <ele>130.4</ele>
        <time>2015-12-15T12:56:19Z</time>
      </trkpt>
      <trkpt lat="44.744" lon="4.81323">
        <ele>130.4</ele>
        <time>2015-12-15T12:56:23Z</time>
      </trkpt>
      <trkpt lat="44.74402" lon="4.81329">
        <ele>131.36</ele>
        <time>2015-12-15T12:56:26Z</time>
      </trkpt>
      <trkpt lat="44.74402" lon="4.81335">
        <ele>131.36</ele>
        <time>2015-12-15T12:56:28Z</time>
      </trkpt>
      <trkpt lat="44.74403" lon="4.81378">
        <ele>134.72</ele>
        <time>2015-12-15T12:56:41Z</time>
      </trkpt>
      <trkpt lat="44.74408" lon="4.81425">
        <ele>138.09</ele>
        <time>2015-12-15T12:56:57Z</time>
      </trkpt>
      <trkpt lat="44.74417" lon="4.81449">
        <ele>140.97</ele>
        <time>2015-12-15T12:57:07Z</time>
      </trkpt>
      <trkpt lat="44.74435" lon="4.81479">
        <ele>143.85</ele>
        <time>2015-12-15T12:57:21Z</time>
      </trkpt>
      <trkpt lat="44.74452" lon="4.81509">
        <ele>147.22</ele>
        <time>2015-12-15T12:57:37Z</time>
      </trkpt>
      <trkpt lat="44.74467" lon="4.8155">
        <ele>149.62</ele>
        <time>2015-12-15T12:57:57Z</time>
      </trkpt>
      <trkpt lat="44.74475" lon="4.81615">
        <ele>152.03</ele>
        <time>2015-12-15T12:58:18Z</time>
      </trkpt>
      <trkpt lat="44.74464" lon="4.81683">
        <ele>154.91</ele>
        <time>2015-12-15T12:58:39Z</time>
      </trkpt>
      <trkpt lat="44.74441" lon="4.81744">
        <ele>156.83</ele>
        <time>2015-12-15T12:59:01Z</time>
      </trkpt>
      <trkpt lat="44.74416" lon="4.81804">
        <ele>159.72</ele>
        <time>2015-12-15T12:59:23Z</time>
      </trkpt>
      <trkpt lat="44.74378" lon="4.81861">
        <ele>160.68</ele>
        <time>2015-12-15T12:59:41Z</time>
      </trkpt>
      <trkpt lat="44.74382" lon="4.81907">
        <ele>162.12</ele>
        <time>2015-12-15T12:59:53Z</time>
      </trkpt>
      <trkpt lat="44.74406" lon="4.81953">
        <ele>166.45</ele>
        <time>2015-12-15T13:00:08Z</time>
      </trkpt>
      <trkpt lat="44.74416" lon="4.82005">
        <ele>168.85</ele>
        <time>2015-12-15T13:00:23Z</time>
      </trkpt>
      <trkpt lat="44.74415" lon="4.82006">
        <ele>168.85</ele>
        <time>2015-12-15T13:00:24Z</time>
      </trkpt>
      <trkpt lat="44.74413" lon="4.82006">
        <ele>169.33</ele>
        <time>2015-12-15T13:00:25Z</time>
      </trkpt>
      <trkpt lat="44.74398" lon="4.82003">
        <ele>169.81</ele>
        <time>2015-12-15T13:00:39Z</time>
      </trkpt>
      <trkpt lat="44.74401" lon="4.82007">
        <ele>169.81</ele>
        <time>2015-12-15T13:01:05Z</time>
      </trkpt>
      <trkpt lat="44.74391" lon="4.82001">
        <ele>169.81</ele>
        <time>2015-12-15T13:01:21Z</time>
      </trkpt>
      <trkpt lat="44.74347" lon="4.81986">
        <ele>169.33</ele>
        <time>2015-12-15T13:01:34Z</time>
      </trkpt>
      <trkpt lat="44.74283" lon="4.81962">
        <ele>166.93</ele>
        <time>2015-12-15T13:01:48Z</time>
      </trkpt>
      <trkpt lat="44.74211" lon="4.81919">
        <ele>164.52</ele>
        <time>2015-12-15T13:02:01Z</time>
      </trkpt>
      <trkpt lat="44.74149" lon="4.8186">
        <ele>166.45</ele>
        <time>2015-12-15T13:02:15Z</time>
      </trkpt>
      <trkpt lat="44.74141" lon="4.81854">
        <ele>166.45</ele>
        <time>2015-12-15T13:02:17Z</time>
      </trkpt>
      <trkpt lat="44.74095" lon="4.81823">
        <ele>166.45</ele>
        <time>2015-12-15T13:02:28Z</time>
      </trkpt>
      <trkpt lat="44.74069" lon="4.81805">
        <ele>166.93</ele>
        <time>2015-12-15T13:02:34Z</time>
      </trkpt>
      <trkpt lat="44.74025" lon="4.81786">
        <ele>167.41</ele>
        <time>2015-12-15T13:02:48Z</time>
      </trkpt>
      <trkpt lat="44.74022" lon="4.8179">
        <ele>167.41</ele>
        <time>2015-12-15T13:02:50Z</time>
      </trkpt>
      <trkpt lat="44.74021" lon="4.81793">
        <ele>167.41</ele>
        <time>2015-12-15T13:02:51Z</time>
      </trkpt>
      <trkpt lat="44.74021" lon="4.81795">
        <ele>167.41</ele>
        <time>2015-12-15T13:02:52Z</time>
      </trkpt>
      <trkpt lat="44.7402" lon="4.81808">
        <ele>169.33</ele>
        <time>2015-12-15T13:02:57Z</time>
      </trkpt>
      <trkpt lat="44.74016" lon="4.81841">
        <ele>172.69</ele>
        <time>2015-12-15T13:03:11Z</time>
      </trkpt>
      <trkpt lat="44.74009" lon="4.81884">
        <ele>175.58</ele>
        <time>2015-12-15T13:03:29Z</time>
      </trkpt>
      <trkpt lat="44.74001" lon="4.81919">
        <ele>177.98</ele>
        <time>2015-12-15T13:03:45Z</time>
      </trkpt>
      <trkpt lat="44.73997" lon="4.81958">
        <ele>179.9</ele>
        <time>2015-12-15T13:04:03Z</time>
      </trkpt>
      <trkpt lat="44.73994" lon="4.81995">
        <ele>182.79</ele>
        <time>2015-12-15T13:04:20Z</time>
      </trkpt>
      <trkpt lat="44.73988" lon="4.82036">
        <ele>186.15</ele>
        <time>2015-12-15T13:04:40Z</time>
      </trkpt>
      <trkpt lat="44.73985" lon="4.82063">
        <ele>188.56</ele>
        <time>2015-12-15T13:04:56Z</time>
      </trkpt>
      <trkpt lat="44.7398" lon="4.82091">
        <ele>190.96</ele>
        <time>2015-12-15T13:05:12Z</time>
      </trkpt>
      <trkpt lat="44.73976" lon="4.82127">
        <ele>194.32</ele>
        <time>2015-12-15T13:05:31Z</time>
      </trkpt>
      <trkpt lat="44.73974" lon="4.82156">
        <ele>196.25</ele>
        <time>2015-12-15T13:05:47Z</time>
      </trkpt>
      <trkpt lat="44.7397" lon="4.82191">
        <ele>198.65</ele>
        <time>2015-12-15T13:06:05Z</time>
      </trkpt>
      <trkpt lat="44.73966" lon="4.82231">
        <ele>200.57</ele>
        <time>2015-12-15T13:06:24Z</time>
      </trkpt>
      <trkpt lat="44.7396" lon="4.8227">
        <ele>202.01</ele>
        <time>2015-12-15T13:06:40Z</time>
      </trkpt>
      <trkpt lat="44.73954" lon="4.8231">
        <ele>205.38</ele>
        <time>2015-12-15T13:06:58Z</time>
      </trkpt>
      <trkpt lat="44.73949" lon="4.82353">
        <ele>208.26</ele>
        <time>2015-12-15T13:07:17Z</time>
      </trkpt>
      <trkpt lat="44.73944" lon="4.82392">
        <ele>211.15</ele>
        <time>2015-12-15T13:07:34Z</time>
      </trkpt>
      <trkpt lat="44.7394" lon="4.82429">
        <ele>213.07</ele>
        <time>2015-12-15T13:07:50Z</time>
      </trkpt>
      <trkpt lat="44.73928" lon="4.82474">
        <ele>214.03</ele>
        <time>2015-12-15T13:08:10Z</time>
      </trkpt>
      <trkpt lat="44.7391" lon="4.82521">
        <ele>215.47</ele>
        <time>2015-12-15T13:08:29Z</time>
      </trkpt>
      <trkpt lat="44.73898" lon="4.8256">
        <ele>218.36</ele>
        <time>2015-12-15T13:08:46Z</time>
      </trkpt>
      <trkpt lat="44.73885" lon="4.826">
        <ele>220.76</ele>
        <time>2015-12-15T13:09:05Z</time>
      </trkpt>
      <trkpt lat="44.73872" lon="4.82638">
        <ele>224.12</ele>
        <time>2015-12-15T13:09:22Z</time>
      </trkpt>
      <trkpt lat="44.73859" lon="4.82679">
        <ele>227.49</ele>
        <time>2015-12-15T13:09:39Z</time>
      </trkpt>
      <trkpt lat="44.73845" lon="4.82719">
        <ele>228.93</ele>
        <time>2015-12-15T13:09:56Z</time>
      </trkpt>
      <trkpt lat="44.73836" lon="4.82743">
        <ele>229.41</ele>
        <time>2015-12-15T13:10:14Z</time>
      </trkpt>
      <trkpt lat="44.73834" lon="4.82743">
        <ele>229.89</ele>
        <time>2015-12-15T13:10:28Z</time>
      </trkpt>
      <trkpt lat="44.73835" lon="4.82741">
        <ele>229.41</ele>
        <time>2015-12-15T13:10:55Z</time>
      </trkpt>
      <trkpt lat="44.73835" lon="4.82739">
        <ele>229.89</ele>
        <time>2015-12-15T13:11:29Z</time>
      </trkpt>
      <trkpt lat="44.73834" lon="4.82739">
        <ele>229.41</ele>
        <time>2015-12-15T13:11:57Z</time>
      </trkpt>
      <trkpt lat="44.73836" lon="4.8274">
        <ele>229.41</ele>
        <time>2015-12-15T13:12:30Z</time>
      </trkpt>
      <trkpt lat="44.73836" lon="4.82745">
        <ele>229.41</ele>
        <time>2015-12-15T13:12:53Z</time>
      </trkpt>
      <trkpt lat="44.7383" lon="4.82757">
        <ele>229.41</ele>
        <time>2015-12-15T13:13:05Z</time>
      </trkpt>
      <trkpt lat="44.73805" lon="4.82762">
        <ele>231.81</ele>
        <time>2015-12-15T13:13:17Z</time>
      </trkpt>
      <trkpt lat="44.73764" lon="4.82752">
        <ele>234.7</ele>
        <time>2015-12-15T13:13:36Z</time>
      </trkpt>
      <trkpt lat="44.7373" lon="4.82742">
        <ele>237.58</ele>
        <time>2015-12-15T13:13:53Z</time>
      </trkpt>
      <trkpt lat="44.73703" lon="4.82754">
        <ele>239.99</ele>
        <time>2015-12-15T13:14:10Z</time>
      </trkpt>
      <trkpt lat="44.73682" lon="4.82766">
        <ele>242.87</ele>
        <time>2015-12-15T13:14:27Z</time>
      </trkpt>
      <trkpt lat="44.73663" lon="4.82773">
        <ele>246.23</ele>
        <time>2015-12-15T13:14:43Z</time>
      </trkpt>
      <trkpt lat="44.73644" lon="4.82773">
        <ele>249.12</ele>
        <time>2015-12-15T13:15:01Z</time>
      </trkpt>
      <trkpt lat="44.73629" lon="4.82773">
        <ele>251.52</ele>
        <time>2015-12-15T13:15:17Z</time>
      </trkpt>
      <trkpt lat="44.73615" lon="4.82771">
        <ele>253.93</ele>
        <time>2015-12-15T13:15:33Z</time>
      </trkpt>
      <trkpt lat="44.73611" lon="4.82768">
        <ele>255.37</ele>
        <time>2015-12-15T13:15:39Z</time>
      </trkpt>
      <trkpt lat="44.73605" lon="4.82764">
        <ele>256.33</ele>
        <time>2015-12-15T13:15:44Z</time>
      </trkpt>
      <trkpt lat="44.73604" lon="4.82763">
        <ele>256.33</ele>
        <time>2015-12-15T13:15:45Z</time>
      </trkpt>
      <trkpt lat="44.73592" lon="4.82753">
        <ele>258.25</ele>
        <time>2015-12-15T13:15:58Z</time>
      </trkpt>
      <trkpt lat="44.73575" lon="4.82744">
        <ele>260.65</ele>
        <time>2015-12-15T13:16:12Z</time>
      </trkpt>
      <trkpt lat="44.73559" lon="4.82739">
        <ele>262.1</ele>
        <time>2015-12-15T13:16:25Z</time>
      </trkpt>
      <trkpt lat="44.7356" lon="4.82739">
        <ele>261.62</ele>
        <time>2015-12-15T13:16:37Z</time>
      </trkpt>
      <trkpt lat="44.73557" lon="4.82735">
        <ele>261.62</ele>
        <time>2015-12-15T13:16:57Z</time>
      </trkpt>
      <trkpt lat="44.73551" lon="4.82733">
        <ele>261.62</ele>
        <time>2015-12-15T13:17:20Z</time>
      </trkpt>
      <trkpt lat="44.73552" lon="4.82735">
        <ele>262.1</ele>
        <time>2015-12-15T13:17:46Z</time>
      </trkpt>
      <trkpt lat="44.73549" lon="4.82732">
        <ele>261.62</ele>
        <time>2015-12-15T13:18:10Z</time>
      </trkpt>
      <trkpt lat="44.73548" lon="4.82735">
        <ele>262.1</ele>
        <time>2015-12-15T13:18:34Z</time>
      </trkpt>
      <trkpt lat="44.73549" lon="4.82735">
        <ele>262.1</ele>
        <time>2015-12-15T13:18:59Z</time>
      </trkpt>
      <trkpt lat="44.73551" lon="4.82731">
        <ele>261.62</ele>
        <time>2015-12-15T13:19:32Z</time>
      </trkpt>
      <trkpt lat="44.73556" lon="4.82735">
        <ele>261.62</ele>
        <time>2015-12-15T13:20:04Z</time>
      </trkpt>
      <trkpt lat="44.73552" lon="4.82738">
        <ele>261.62</ele>
        <time>2015-12-15T13:20:33Z</time>
      </trkpt>
      <trkpt lat="44.73552" lon="4.82738">
        <ele>261.62</ele>
        <time>2015-12-15T13:20:57Z</time>
      </trkpt>
      <trkpt lat="44.73547" lon="4.82737">
        <ele>261.62</ele>
        <time>2015-12-15T13:21:08Z</time>
      </trkpt>
      <trkpt lat="44.73546" lon="4.82737">
        <ele>261.14</ele>
        <time>2015-12-15T13:21:09Z</time>
      </trkpt>
      <trkpt lat="44.73544" lon="4.82736">
        <ele>261.14</ele>
        <time>2015-12-15T13:21:10Z</time>
      </trkpt>
      <trkpt lat="44.73543" lon="4.82736">
        <ele>262.1</ele>
        <time>2015-12-15T13:21:11Z</time>
      </trkpt>
      <trkpt lat="44.73541" lon="4.82736">
        <ele>261.14</ele>
        <time>2015-12-15T13:21:12Z</time>
      </trkpt>
      <trkpt lat="44.7354" lon="4.82736">
        <ele>261.62</ele>
        <time>2015-12-15T13:21:13Z</time>
      </trkpt>
      <trkpt lat="44.73538" lon="4.82736">
        <ele>261.14</ele>
        <time>2015-12-15T13:21:14Z</time>
      </trkpt>
      <trkpt lat="44.73536" lon="4.82737">
        <ele>261.14</ele>
        <time>2015-12-15T13:21:15Z</time>
      </trkpt>
      <trkpt lat="44.7351" lon="4.82756">
        <ele>257.29</ele>
        <time>2015-12-15T13:21:22Z</time>
      </trkpt>
      <trkpt lat="44.73501" lon="4.82768">
        <ele>256.33</ele>
        <time>2015-12-15T13:21:24Z</time>
      </trkpt>
      <trkpt lat="44.73456" lon="4.82823">
        <ele>256.81</ele>
        <time>2015-12-15T13:21:37Z</time>
      </trkpt>
      <trkpt lat="44.73452" lon="4.82826">
        <ele>256.81</ele>
        <time>2015-12-15T13:21:38Z</time>
      </trkpt>
      <trkpt lat="44.73396" lon="4.82857">
        <ele>257.77</ele>
        <time>2015-12-15T13:21:54Z</time>
      </trkpt>
      <trkpt lat="44.73351" lon="4.82873">
        <ele>256.33</ele>
        <time>2015-12-15T13:22:05Z</time>
      </trkpt>
      <trkpt lat="44.73328" lon="4.82911">
        <ele>257.77</ele>
        <time>2015-12-15T13:22:15Z</time>
      </trkpt>
      <trkpt lat="44.7331" lon="4.82954">
        <ele>257.77</ele>
        <time>2015-12-15T13:22:24Z</time>
      </trkpt>
      <trkpt lat="44.73307" lon="4.82957">
        <ele>257.77</ele>
        <time>2015-12-15T13:22:25Z</time>
      </trkpt>
      <trkpt lat="44.73303" lon="4.82958">
        <ele>257.29</ele>
        <time>2015-12-15T13:22:26Z</time>
      </trkpt>
      <trkpt lat="44.73283" lon="4.82947">
        <ele>257.29</ele>
        <time>2015-12-15T13:22:31Z</time>
      </trkpt>
      <trkpt lat="44.73263" lon="4.82934">
        <ele>256.81</ele>
        <time>2015-12-15T13:22:35Z</time>
      </trkpt>
      <trkpt lat="44.73221" lon="4.82934">
        <ele>255.37</ele>
        <time>2015-12-15T13:22:42Z</time>
      </trkpt>
      <trkpt lat="44.73173" lon="4.8294">
        <ele>256.81</ele>
        <time>2015-12-15T13:22:53Z</time>
      </trkpt>
      <trkpt lat="44.73115" lon="4.82963">
        <ele>260.17</ele>
        <time>2015-12-15T13:23:09Z</time>
      </trkpt>
      <trkpt lat="44.73111" lon="4.82965">
        <ele>260.17</ele>
        <time>2015-12-15T13:23:10Z</time>
      </trkpt>
      <trkpt lat="44.73063" lon="4.82985">
        <ele>258.73</ele>
        <time>2015-12-15T13:23:24Z</time>
      </trkpt>
      <trkpt lat="44.73007" lon="4.83024">
        <ele>256.33</ele>
        <time>2015-12-15T13:23:36Z</time>
      </trkpt>
      <trkpt lat="44.72936" lon="4.83057">
        <ele>252.48</ele>
        <time>2015-12-15T13:23:46Z</time>
      </trkpt>
      <trkpt lat="44.72914" lon="4.83062">
        <ele>249.12</ele>
        <time>2015-12-15T13:23:49Z</time>
      </trkpt>
      <trkpt lat="44.72897" lon="4.83072">
        <ele>246.23</ele>
        <time>2015-12-15T13:23:54Z</time>
      </trkpt>
      <trkpt lat="44.72897" lon="4.83076">
        <ele>245.75</ele>
        <time>2015-12-15T13:23:55Z</time>
      </trkpt>
      <trkpt lat="44.72897" lon="4.83081">
        <ele>245.75</ele>
        <time>2015-12-15T13:23:56Z</time>
      </trkpt>
      <trkpt lat="44.72898" lon="4.83085">
        <ele>245.75</ele>
        <time>2015-12-15T13:23:57Z</time>
      </trkpt>
      <trkpt lat="44.72899" lon="4.8309">
        <ele>246.23</ele>
        <time>2015-12-15T13:23:58Z</time>
      </trkpt>
      <trkpt lat="44.72898" lon="4.83094">
        <ele>246.23</ele>
        <time>2015-12-15T13:23:59Z</time>
      </trkpt>
      <trkpt lat="44.72898" lon="4.83098">
        <ele>245.75</ele>
        <time>2015-12-15T13:24:00Z</time>
      </trkpt>
      <trkpt lat="44.72898" lon="4.83102">
        <ele>245.75</ele>
        <time>2015-12-15T13:24:01Z</time>
      </trkpt>
      <trkpt lat="44.72899" lon="4.83106">
        <ele>245.75</ele>
        <time>2015-12-15T13:24:02Z</time>
      </trkpt>
      <trkpt lat="44.72898" lon="4.8311">
        <ele>246.72</ele>
        <time>2015-12-15T13:24:03Z</time>
      </trkpt>
      <trkpt lat="44.72898" lon="4.83113">
        <ele>247.2</ele>
        <time>2015-12-15T13:24:04Z</time>
      </trkpt>
      <trkpt lat="44.72897" lon="4.83117">
        <ele>247.2</ele>
        <time>2015-12-15T13:24:05Z</time>
      </trkpt>
      <trkpt lat="44.72894" lon="4.83129">
        <ele>248.64</ele>
        <time>2015-12-15T13:24:10Z</time>
      </trkpt>
      <trkpt lat="44.72893" lon="4.83134">
        <ele>249.12</ele>
        <time>2015-12-15T13:24:12Z</time>
      </trkpt>
      <trkpt lat="44.72892" lon="4.83138">
        <ele>248.64</ele>
        <time>2015-12-15T13:24:24Z</time>
      </trkpt>
      <trkpt lat="44.72891" lon="4.8314">
        <ele>248.64</ele>
        <time>2015-12-15T13:24:39Z</time>
      </trkpt>
      <trkpt lat="44.7289" lon="4.83141">
        <ele>248.64</ele>
        <time>2015-12-15T13:24:40Z</time>
      </trkpt>
      <trkpt lat="44.72888" lon="4.83143">
        <ele>249.12</ele>
        <time>2015-12-15T13:24:41Z</time>
      </trkpt>
      <trkpt lat="44.72886" lon="4.83146">
        <ele>249.12</ele>
        <time>2015-12-15T13:24:42Z</time>
      </trkpt>
      <trkpt lat="44.72884" lon="4.8315">
        <ele>249.6</ele>
        <time>2015-12-15T13:24:43Z</time>
      </trkpt>
      <trkpt lat="44.72857" lon="4.83214">
        <ele>249.12</ele>
        <time>2015-12-15T13:24:57Z</time>
      </trkpt>
      <trkpt lat="44.72833" lon="4.83285">
        <ele>247.68</ele>
        <time>2015-12-15T13:25:11Z</time>
      </trkpt>
      <trkpt lat="44.72816" lon="4.83361">
        <ele>246.23</ele>
        <time>2015-12-15T13:25:24Z</time>
      </trkpt>
      <trkpt lat="44.72811" lon="4.83384">
        <ele>244.79</ele>
        <time>2015-12-15T13:25:27Z</time>
      </trkpt>
      <trkpt lat="44.72806" lon="4.83491">
        <ele>241.43</ele>
        <time>2015-12-15T13:25:37Z</time>
      </trkpt>
      <trkpt lat="44.72806" lon="4.83504">
        <ele>241.43</ele>
        <time>2015-12-15T13:25:38Z</time>
      </trkpt>
      <trkpt lat="44.72809" lon="4.83555">
        <ele>241.43</ele>
        <time>2015-12-15T13:25:42Z</time>
      </trkpt>
      <trkpt lat="44.72813" lon="4.83566">
        <ele>240.47</ele>
        <time>2015-12-15T13:25:43Z</time>
      </trkpt>
      <trkpt lat="44.72818" lon="4.83576">
        <ele>240.47</ele>
        <time>2015-12-15T13:25:44Z</time>
      </trkpt>
      <trkpt lat="44.72829" lon="4.83595">
        <ele>239.51</ele>
        <time>2015-12-15T13:25:46Z</time>
      </trkpt>
      <trkpt lat="44.72834" lon="4.83605">
        <ele>239.02</ele>
        <time>2015-12-15T13:25:47Z</time>
      </trkpt>
      <trkpt lat="44.72837" lon="4.83614">
        <ele>238.54</ele>
        <time>2015-12-15T13:25:48Z</time>
      </trkpt>
      <trkpt lat="44.72838" lon="4.83622">
        <ele>237.58</ele>
        <time>2015-12-15T13:25:49Z</time>
      </trkpt>
      <trkpt lat="44.72837" lon="4.83629">
        <ele>237.58</ele>
        <time>2015-12-15T13:25:50Z</time>
      </trkpt>
      <trkpt lat="44.72834" lon="4.83634">
        <ele>238.54</ele>
        <time>2015-12-15T13:25:51Z</time>
      </trkpt>
      <trkpt lat="44.72831" lon="4.83636">
        <ele>239.02</ele>
        <time>2015-12-15T13:25:52Z</time>
      </trkpt>
      <trkpt lat="44.72828" lon="4.83637">
        <ele>238.54</ele>
        <time>2015-12-15T13:25:53Z</time>
      </trkpt>
      <trkpt lat="44.72804" lon="4.8363">
        <ele>241.43</ele>
        <time>2015-12-15T13:26:05Z</time>
      </trkpt>
      <trkpt lat="44.72781" lon="4.83624">
        <ele>244.79</ele>
        <time>2015-12-15T13:26:17Z</time>
      </trkpt>
      <trkpt lat="44.72741" lon="4.83603">
        <ele>248.16</ele>
        <time>2015-12-15T13:26:33Z</time>
      </trkpt>
      <trkpt lat="44.72711" lon="4.83599">
        <ele>251.04</ele>
        <time>2015-12-15T13:26:49Z</time>
      </trkpt>
      <trkpt lat="44.72683" lon="4.83598">
        <ele>252.48</ele>
        <time>2015-12-15T13:27:06Z</time>
      </trkpt>
      <trkpt lat="44.72657" lon="4.83594">
        <ele>254.41</ele>
        <time>2015-12-15T13:27:19Z</time>
      </trkpt>
      <trkpt lat="44.7262" lon="4.83586">
        <ele>255.37</ele>
        <time>2015-12-15T13:27:35Z</time>
      </trkpt>
      <trkpt lat="44.7259" lon="4.83563">
        <ele>257.29</ele>
        <time>2015-12-15T13:27:52Z</time>
      </trkpt>
      <trkpt lat="44.72561" lon="4.83546">
        <ele>258.25</ele>
        <time>2015-12-15T13:28:08Z</time>
      </trkpt>
      <trkpt lat="44.72535" lon="4.83565">
        <ele>259.69</ele>
        <time>2015-12-15T13:28:22Z</time>
      </trkpt>
      <trkpt lat="44.72491" lon="4.8359">
        <ele>261.14</ele>
        <time>2015-12-15T13:28:39Z</time>
      </trkpt>
      <trkpt lat="44.72464" lon="4.83601">
        <ele>263.54</ele>
        <time>2015-12-15T13:28:53Z</time>
      </trkpt>
      <trkpt lat="44.72438" lon="4.83609">
        <ele>265.94</ele>
        <time>2015-12-15T13:29:08Z</time>
      </trkpt>
      <trkpt lat="44.72418" lon="4.83624">
        <ele>268.83</ele>
        <time>2015-12-15T13:29:24Z</time>
      </trkpt>
      <trkpt lat="44.72396" lon="4.83636">
        <ele>270.75</ele>
        <time>2015-12-15T13:29:39Z</time>
      </trkpt>
      <trkpt lat="44.72365" lon="4.8365">
        <ele>271.23</ele>
        <time>2015-12-15T13:29:56Z</time>
      </trkpt>
      <trkpt lat="44.72344" lon="4.83664">
        <ele>267.86</ele>
        <time>2015-12-15T13:30:10Z</time>
      </trkpt>
      <trkpt lat="44.72332" lon="4.83673">
        <ele>266.42</ele>
        <time>2015-12-15T13:30:14Z</time>
      </trkpt>
      <trkpt lat="44.72327" lon="4.83675">
        <ele>265.94</ele>
        <time>2015-12-15T13:30:15Z</time>
      </trkpt>
      <trkpt lat="44.72323" lon="4.83677">
        <ele>264.98</ele>
        <time>2015-12-15T13:30:16Z</time>
      </trkpt>
      <trkpt lat="44.72318" lon="4.83679">
        <ele>264.98</ele>
        <time>2015-12-15T13:30:17Z</time>
      </trkpt>
      <trkpt lat="44.72303" lon="4.83685">
        <ele>263.54</ele>
        <time>2015-12-15T13:30:19Z</time>
      </trkpt>
      <trkpt lat="44.72294" lon="4.83687">
        <ele>263.54</ele>
        <time>2015-12-15T13:30:20Z</time>
      </trkpt>
      <trkpt lat="44.72286" lon="4.83686">
        <ele>262.58</ele>
        <time>2015-12-15T13:30:21Z</time>
      </trkpt>
      <trkpt lat="44.72278" lon="4.83683">
        <ele>262.58</ele>
        <time>2015-12-15T13:30:22Z</time>
      </trkpt>
      <trkpt lat="44.7227" lon="4.83678">
        <ele>261.62</ele>
        <time>2015-12-15T13:30:23Z</time>
      </trkpt>
      <trkpt lat="44.72262" lon="4.83673">
        <ele>261.62</ele>
        <time>2015-12-15T13:30:24Z</time>
      </trkpt>
      <trkpt lat="44.72199" lon="4.83642">
        <ele>262.1</ele>
        <time>2015-12-15T13:30:35Z</time>
      </trkpt>
      <trkpt lat="44.72164" lon="4.83635">
        <ele>263.54</ele>
        <time>2015-12-15T13:30:47Z</time>
      </trkpt>
      <trkpt lat="44.72126" lon="4.83635">
        <ele>264.98</ele>
        <time>2015-12-15T13:31:01Z</time>
      </trkpt>
      <trkpt lat="44.72072" lon="4.8364">
        <ele>264.02</ele>
        <time>2015-12-15T13:31:13Z</time>
      </trkpt>
      <trkpt lat="44.72033" lon="4.83647">
        <ele>260.65</ele>
        <time>2015-12-15T13:31:18Z</time>
      </trkpt>
      <trkpt lat="44.71975" lon="4.83657">
        <ele>257.77</ele>
        <time>2015-12-15T13:31:24Z</time>
      </trkpt>
      <trkpt lat="44.71911" lon="4.83679">
        <ele>254.41</ele>
        <time>2015-12-15T13:31:32Z</time>
      </trkpt>
      <trkpt lat="44.71906" lon="4.83682">
        <ele>253.93</ele>
        <time>2015-12-15T13:31:33Z</time>
      </trkpt>
      <trkpt lat="44.71892" lon="4.83692">
        <ele>253.93</ele>
        <time>2015-12-15T13:31:36Z</time>
      </trkpt>
      <trkpt lat="44.71877" lon="4.83707">
        <ele>252.96</ele>
        <time>2015-12-15T13:31:39Z</time>
      </trkpt>
      <trkpt lat="44.7187" lon="4.83711">
        <ele>252.48</ele>
        <time>2015-12-15T13:31:40Z</time>
      </trkpt>
      <trkpt lat="44.71837" lon="4.8372">
        <ele>249.12</ele>
        <time>2015-12-15T13:31:44Z</time>
      </trkpt>
      <trkpt lat="44.71807" lon="4.83729">
        <ele>244.31</ele>
        <time>2015-12-15T13:31:47Z</time>
      </trkpt>
      <trkpt lat="44.71785" lon="4.83735">
        <ele>240.95</ele>
        <time>2015-12-15T13:31:49Z</time>
      </trkpt>
      <trkpt lat="44.71772" lon="4.83737">
        <ele>240.47</ele>
        <time>2015-12-15T13:31:50Z</time>
      </trkpt>
      <trkpt lat="44.71744" lon="4.83742">
        <ele>237.58</ele>
        <time>2015-12-15T13:31:52Z</time>
      </trkpt>
      <trkpt lat="44.7173" lon="4.83742">
        <ele>237.1</ele>
        <time>2015-12-15T13:31:53Z</time>
      </trkpt>
      <trkpt lat="44.71661" lon="4.8374">
        <ele>237.58</ele>
        <time>2015-12-15T13:32:00Z</time>
      </trkpt>
      <trkpt lat="44.71656" lon="4.83738">
        <ele>237.58</ele>
        <time>2015-12-15T13:32:01Z</time>
      </trkpt>
      <trkpt lat="44.71645" lon="4.83731">
        <ele>239.02</ele>
        <time>2015-12-15T13:32:04Z</time>
      </trkpt>
      <trkpt lat="44.71642" lon="4.83728">
        <ele>239.99</ele>
        <time>2015-12-15T13:32:05Z</time>
      </trkpt>
      <trkpt lat="44.71624" lon="4.83719">
        <ele>242.39</ele>
        <time>2015-12-15T13:32:10Z</time>
      </trkpt>
      <trkpt lat="44.71602" lon="4.8373">
        <ele>246.23</ele>
        <time>2015-12-15T13:32:18Z</time>
      </trkpt>
      <trkpt lat="44.71583" lon="4.8375">
        <ele>248.16</ele>
        <time>2015-12-15T13:32:31Z</time>
      </trkpt>
      <trkpt lat="44.71576" lon="4.83757">
        <ele>247.68</ele>
        <time>2015-12-15T13:32:43Z</time>
      </trkpt>
      <trkpt lat="44.71573" lon="4.83759">
        <ele>247.68</ele>
        <time>2015-12-15T13:33:12Z</time>
      </trkpt>
      <trkpt lat="44.71572" lon="4.83759">
        <ele>247.2</ele>
        <time>2015-12-15T13:33:38Z</time>
      </trkpt>
      <trkpt lat="44.71573" lon="4.83758">
        <ele>247.2</ele>
        <time>2015-12-15T13:34:00Z</time>
      </trkpt>
      <trkpt lat="44.71574" lon="4.83757">
        <ele>246.72</ele>
        <time>2015-12-15T13:34:30Z</time>
      </trkpt>
      <trkpt lat="44.71574" lon="4.83759">
        <ele>246.72</ele>
        <time>2015-12-15T13:34:52Z</time>
      </trkpt>
      <trkpt lat="44.71569" lon="4.83774">
        <ele>247.2</ele>
        <time>2015-12-15T13:35:05Z</time>
      </trkpt>
      <trkpt lat="44.71586" lon="4.83838">
        <ele>248.16</ele>
        <time>2015-12-15T13:35:22Z</time>
      </trkpt>
      <trkpt lat="44.71626" lon="4.83881">
        <ele>249.6</ele>
        <time>2015-12-15T13:35:37Z</time>
      </trkpt>
      <trkpt lat="44.71654" lon="4.8393">
        <ele>251.52</ele>
        <time>2015-12-15T13:35:52Z</time>
      </trkpt>
      <trkpt lat="44.71655" lon="4.83996">
        <ele>253.93</ele>
        <time>2015-12-15T13:36:08Z</time>
      </trkpt>
      <trkpt lat="44.71682" lon="4.8405">
        <ele>256.81</ele>
        <time>2015-12-15T13:36:24Z</time>
      </trkpt>
      <trkpt lat="44.717" lon="4.84089">
        <ele>258.73</ele>
        <time>2015-12-15T13:36:38Z</time>
      </trkpt>
      <trkpt lat="44.71707" lon="4.84128">
        <ele>260.65</ele>
        <time>2015-12-15T13:36:51Z</time>
      </trkpt>
      <trkpt lat="44.71718" lon="4.84176">
        <ele>262.1</ele>
        <time>2015-12-15T13:37:05Z</time>
      </trkpt>
      <trkpt lat="44.71736" lon="4.8424">
        <ele>263.54</ele>
        <time>2015-12-15T13:37:22Z</time>
      </trkpt>
      <trkpt lat="44.71752" lon="4.84315">
        <ele>265.94</ele>
        <time>2015-12-15T13:37:41Z</time>
      </trkpt>
      <trkpt lat="44.71765" lon="4.8437">
        <ele>267.86</ele>
        <time>2015-12-15T13:37:55Z</time>
      </trkpt>
      <trkpt lat="44.71782" lon="4.84414">
        <ele>269.31</ele>
        <time>2015-12-15T13:38:07Z</time>
      </trkpt>
      <trkpt lat="44.71798" lon="4.84462">
        <ele>272.19</ele>
        <time>2015-12-15T13:38:19Z</time>
      </trkpt>
      <trkpt lat="44.71825" lon="4.84519">
        <ele>273.63</ele>
        <time>2015-12-15T13:38:35Z</time>
      </trkpt>
      <trkpt lat="44.71849" lon="4.84563">
        <ele>275.07</ele>
        <time>2015-12-15T13:38:48Z</time>
      </trkpt>
      <trkpt lat="44.71876" lon="4.84606">
        <ele>277</ele>
        <time>2015-12-15T13:39:03Z</time>
      </trkpt>
      <trkpt lat="44.71901" lon="4.8465">
        <ele>279.4</ele>
        <time>2015-12-15T13:39:18Z</time>
      </trkpt>
      <trkpt lat="44.71911" lon="4.84707">
        <ele>282.28</ele>
        <time>2015-12-15T13:39:35Z</time>
      </trkpt>
      <trkpt lat="44.71917" lon="4.84766">
        <ele>283.73</ele>
        <time>2015-12-15T13:39:52Z</time>
      </trkpt>
      <trkpt lat="44.71919" lon="4.84823">
        <ele>285.65</ele>
        <time>2015-12-15T13:40:08Z</time>
      </trkpt>
      <trkpt lat="44.71928" lon="4.84889">
        <ele>288.53</ele>
        <time>2015-12-15T13:40:27Z</time>
      </trkpt>
      <trkpt lat="44.7195" lon="4.84947">
        <ele>290.46</ele>
        <time>2015-12-15T13:40:45Z</time>
      </trkpt>
      <trkpt lat="44.7197" lon="4.84988">
        <ele>292.38</ele>
        <time>2015-12-15T13:41:01Z</time>
      </trkpt>
      <trkpt lat="44.71986" lon="4.85032">
        <ele>294.78</ele>
        <time>2015-12-15T13:41:17Z</time>
      </trkpt>
      <trkpt lat="44.71988" lon="4.85069">
        <ele>297.18</ele>
        <time>2015-12-15T13:41:33Z</time>
      </trkpt>
      <trkpt lat="44.71993" lon="4.85108">
        <ele>300.07</ele>
        <time>2015-12-15T13:41:53Z</time>
      </trkpt>
      <trkpt lat="44.71993" lon="4.85127">
        <ele>301.51</ele>
        <time>2015-12-15T13:42:04Z</time>
      </trkpt>
      <trkpt lat="44.71988" lon="4.85158">
        <ele>303.91</ele>
        <time>2015-12-15T13:42:20Z</time>
      </trkpt>
      <trkpt lat="44.71982" lon="4.85185">
        <ele>306.32</ele>
        <time>2015-12-15T13:42:36Z</time>
      </trkpt>
      <trkpt lat="44.71982" lon="4.85186">
        <ele>306.8</ele>
        <time>2015-12-15T13:42:37Z</time>
      </trkpt>
      <trkpt lat="44.71978" lon="4.85212">
        <ele>308.24</ele>
        <time>2015-12-15T13:42:51Z</time>
      </trkpt>
      <trkpt lat="44.7197" lon="4.85245">
        <ele>311.12</ele>
        <time>2015-12-15T13:43:09Z</time>
      </trkpt>
      <trkpt lat="44.71969" lon="4.85265">
        <ele>313.53</ele>
        <time>2015-12-15T13:43:25Z</time>
      </trkpt>
      <trkpt lat="44.71971" lon="4.85283">
        <ele>315.45</ele>
        <time>2015-12-15T13:43:39Z</time>
      </trkpt>
      <trkpt lat="44.71971" lon="4.85309">
        <ele>317.37</ele>
        <time>2015-12-15T13:43:54Z</time>
      </trkpt>
      <trkpt lat="44.71968" lon="4.85321">
        <ele>318.81</ele>
        <time>2015-12-15T13:44:01Z</time>
      </trkpt>
      <trkpt lat="44.71968" lon="4.85328">
        <ele>318.81</ele>
        <time>2015-12-15T13:44:05Z</time>
      </trkpt>
      <trkpt lat="44.71967" lon="4.85331">
        <ele>319.3</ele>
        <time>2015-12-15T13:44:07Z</time>
      </trkpt>
      <trkpt lat="44.71964" lon="4.85349">
        <ele>320.26</ele>
        <time>2015-12-15T13:44:20Z</time>
      </trkpt>
      <trkpt lat="44.71959" lon="4.85372">
        <ele>322.66</ele>
        <time>2015-12-15T13:44:34Z</time>
      </trkpt>
      <trkpt lat="44.71956" lon="4.85405">
        <ele>324.58</ele>
        <time>2015-12-15T13:44:50Z</time>
      </trkpt>
      <trkpt lat="44.71944" lon="4.85443">
        <ele>327.47</ele>
        <time>2015-12-15T13:45:10Z</time>
      </trkpt>
      <trkpt lat="44.71936" lon="4.85448">
        <ele>327.95</ele>
        <time>2015-12-15T13:45:13Z</time>
      </trkpt>
      <trkpt lat="44.71934" lon="4.8545">
        <ele>327.95</ele>
        <time>2015-12-15T13:45:15Z</time>
      </trkpt>
      <trkpt lat="44.71933" lon="4.85451">
        <ele>328.91</ele>
        <time>2015-12-15T13:45:16Z</time>
      </trkpt>
      <trkpt lat="44.71912" lon="4.85462">
        <ele>330.35</ele>
        <time>2015-12-15T13:45:29Z</time>
      </trkpt>
      <trkpt lat="44.71898" lon="4.85468">
        <ele>332.75</ele>
        <time>2015-12-15T13:45:43Z</time>
      </trkpt>
      <trkpt lat="44.71879" lon="4.85473">
        <ele>334.68</ele>
        <time>2015-12-15T13:45:59Z</time>
      </trkpt>
      <trkpt lat="44.71858" lon="4.85485">
        <ele>336.12</ele>
        <time>2015-12-15T13:46:14Z</time>
      </trkpt>
      <trkpt lat="44.71847" lon="4.85491">
        <ele>338.04</ele>
        <time>2015-12-15T13:46:28Z</time>
      </trkpt>
      <trkpt lat="44.71834" lon="4.85504">
        <ele>340.44</ele>
        <time>2015-12-15T13:46:44Z</time>
      </trkpt>
      <trkpt lat="44.71832" lon="4.85506">
        <ele>340.92</ele>
        <time>2015-12-15T13:46:46Z</time>
      </trkpt>
      <trkpt lat="44.71819" lon="4.85519">
        <ele>341.89</ele>
        <time>2015-12-15T13:46:57Z</time>
      </trkpt>
      <trkpt lat="44.71817" lon="4.8552">
        <ele>342.37</ele>
        <time>2015-12-15T13:46:58Z</time>
      </trkpt>
      <trkpt lat="44.71816" lon="4.85521">
        <ele>342.37</ele>
        <time>2015-12-15T13:46:59Z</time>
      </trkpt>
      <trkpt lat="44.71803" lon="4.85531">
        <ele>343.81</ele>
        <time>2015-12-15T13:47:09Z</time>
      </trkpt>
      <trkpt lat="44.71787" lon="4.85551">
        <ele>346.21</ele>
        <time>2015-12-15T13:47:24Z</time>
      </trkpt>
      <trkpt lat="44.71768" lon="4.85566">
        <ele>348.62</ele>
        <time>2015-12-15T13:47:40Z</time>
      </trkpt>
      <trkpt lat="44.71748" lon="4.85576">
        <ele>350.54</ele>
        <time>2015-12-15T13:47:57Z</time>
      </trkpt>
      <trkpt lat="44.71727" lon="4.85579">
        <ele>352.46</ele>
        <time>2015-12-15T13:48:13Z</time>
      </trkpt>
      <trkpt lat="44.71705" lon="4.85586">
        <ele>354.86</ele>
        <time>2015-12-15T13:48:30Z</time>
      </trkpt>
      <trkpt lat="44.71699" lon="4.8559">
        <ele>356.31</ele>
        <time>2015-12-15T13:48:36Z</time>
      </trkpt>
      <trkpt lat="44.71699" lon="4.85593">
        <ele>356.31</ele>
        <time>2015-12-15T13:48:37Z</time>
      </trkpt>
      <trkpt lat="44.717" lon="4.85596">
        <ele>356.31</ele>
        <time>2015-12-15T13:48:38Z</time>
      </trkpt>
      <trkpt lat="44.71701" lon="4.85599">
        <ele>356.31</ele>
        <time>2015-12-15T13:48:39Z</time>
      </trkpt>
      <trkpt lat="44.71702" lon="4.85601">
        <ele>356.31</ele>
        <time>2015-12-15T13:48:40Z</time>
      </trkpt>
      <trkpt lat="44.71709" lon="4.85614">
        <ele>357.27</ele>
        <time>2015-12-15T13:48:50Z</time>
      </trkpt>
      <trkpt lat="44.71719" lon="4.85627">
        <ele>358.23</ele>
        <time>2015-12-15T13:49:02Z</time>
      </trkpt>
      <trkpt lat="44.71727" lon="4.85634">
        <ele>358.71</ele>
        <time>2015-12-15T13:49:09Z</time>
      </trkpt>
      <trkpt lat="44.71728" lon="4.85635">
        <ele>358.71</ele>
        <time>2015-12-15T13:49:10Z</time>
      </trkpt>
      <trkpt lat="44.7173" lon="4.85636">
        <ele>358.71</ele>
        <time>2015-12-15T13:49:11Z</time>
      </trkpt>
      <trkpt lat="44.71731" lon="4.85637">
        <ele>359.19</ele>
        <time>2015-12-15T13:49:12Z</time>
      </trkpt>
      <trkpt lat="44.71732" lon="4.85638">
        <ele>359.19</ele>
        <time>2015-12-15T13:49:13Z</time>
      </trkpt>
      <trkpt lat="44.71744" lon="4.85644">
        <ele>360.63</ele>
        <time>2015-12-15T13:49:24Z</time>
      </trkpt>
      <trkpt lat="44.71765" lon="4.8565">
        <ele>363.04</ele>
        <time>2015-12-15T13:49:42Z</time>
      </trkpt>
      <trkpt lat="44.71776" lon="4.85653">
        <ele>364</ele>
        <time>2015-12-15T13:49:51Z</time>
      </trkpt>
      <trkpt lat="44.71777" lon="4.85653">
        <ele>364</ele>
        <time>2015-12-15T13:49:52Z</time>
      </trkpt>
      <trkpt lat="44.71784" lon="4.8565">
        <ele>364.96</ele>
        <time>2015-12-15T13:49:57Z</time>
      </trkpt>
      <trkpt lat="44.71785" lon="4.8565">
        <ele>364.96</ele>
        <time>2015-12-15T13:49:58Z</time>
      </trkpt>
      <trkpt lat="44.71786" lon="4.8565">
        <ele>364.96</ele>
        <time>2015-12-15T13:49:59Z</time>
      </trkpt>
      <trkpt lat="44.71787" lon="4.8565">
        <ele>364.96</ele>
        <time>2015-12-15T13:50:00Z</time>
      </trkpt>
      <trkpt lat="44.71789" lon="4.8565">
        <ele>365.92</ele>
        <time>2015-12-15T13:50:01Z</time>
      </trkpt>
      <trkpt lat="44.7179" lon="4.85649">
        <ele>365.44</ele>
        <time>2015-12-15T13:50:02Z</time>
      </trkpt>
      <trkpt lat="44.71809" lon="4.85642">
        <ele>367.36</ele>
        <time>2015-12-15T13:50:18Z</time>
      </trkpt>
      <trkpt lat="44.7183" lon="4.8564">
        <ele>369.28</ele>
        <time>2015-12-15T13:50:34Z</time>
      </trkpt>
      <trkpt lat="44.71855" lon="4.85642">
        <ele>371.69</ele>
        <time>2015-12-15T13:50:53Z</time>
      </trkpt>
      <trkpt lat="44.71875" lon="4.85652">
        <ele>374.09</ele>
        <time>2015-12-15T13:51:08Z</time>
      </trkpt>
      <trkpt lat="44.7189" lon="4.85666">
        <ele>376.01</ele>
        <time>2015-12-15T13:51:23Z</time>
      </trkpt>
      <trkpt lat="44.71902" lon="4.85684">
        <ele>377.94</ele>
        <time>2015-12-15T13:51:37Z</time>
      </trkpt>
      <trkpt lat="44.71914" lon="4.85704">
        <ele>380.34</ele>
        <time>2015-12-15T13:51:54Z</time>
      </trkpt>
      <trkpt lat="44.71917" lon="4.8571">
        <ele>380.34</ele>
        <time>2015-12-15T13:51:58Z</time>
      </trkpt>
      <trkpt lat="44.7193" lon="4.85729">
        <ele>382.74</ele>
        <time>2015-12-15T13:52:16Z</time>
      </trkpt>
      <trkpt lat="44.71933" lon="4.85734">
        <ele>383.22</ele>
        <time>2015-12-15T13:52:21Z</time>
      </trkpt>
      <trkpt lat="44.71946" lon="4.85737">
        <ele>384.18</ele>
        <time>2015-12-15T13:52:31Z</time>
      </trkpt>
      <trkpt lat="44.71948" lon="4.85737">
        <ele>384.66</ele>
        <time>2015-12-15T13:52:32Z</time>
      </trkpt>
      <trkpt lat="44.71952" lon="4.8574">
        <ele>385.15</ele>
        <time>2015-12-15T13:52:36Z</time>
      </trkpt>
      <trkpt lat="44.71953" lon="4.85741">
        <ele>385.15</ele>
        <time>2015-12-15T13:52:37Z</time>
      </trkpt>
      <trkpt lat="44.71965" lon="4.8576">
        <ele>387.55</ele>
        <time>2015-12-15T13:52:52Z</time>
      </trkpt>
      <trkpt lat="44.71969" lon="4.85766">
        <ele>388.03</ele>
        <time>2015-12-15T13:52:59Z</time>
      </trkpt>
      <trkpt lat="44.7198" lon="4.85783">
        <ele>389.95</ele>
        <time>2015-12-15T13:53:11Z</time>
      </trkpt>
      <trkpt lat="44.7199" lon="4.85806">
        <ele>391.39</ele>
        <time>2015-12-15T13:53:27Z</time>
      </trkpt>
      <trkpt lat="44.71997" lon="4.85837">
        <ele>393.32</ele>
        <time>2015-12-15T13:53:44Z</time>
      </trkpt>
      <trkpt lat="44.71997" lon="4.85844">
        <ele>393.8</ele>
        <time>2015-12-15T13:53:48Z</time>
      </trkpt>
      <trkpt lat="44.71997" lon="4.85866">
        <ele>396.2</ele>
        <time>2015-12-15T13:54:04Z</time>
      </trkpt>
      <trkpt lat="44.71994" lon="4.85892">
        <ele>398.12</ele>
        <time>2015-12-15T13:54:19Z</time>
      </trkpt>
      <trkpt lat="44.71992" lon="4.85918">
        <ele>399.57</ele>
        <time>2015-12-15T13:54:35Z</time>
      </trkpt>
      <trkpt lat="44.7199" lon="4.85937">
        <ele>401.01</ele>
        <time>2015-12-15T13:54:48Z</time>
      </trkpt>
      <trkpt lat="44.71986" lon="4.85963">
        <ele>402.93</ele>
        <time>2015-12-15T13:55:03Z</time>
      </trkpt>
      <trkpt lat="44.71984" lon="4.85989">
        <ele>404.85</ele>
        <time>2015-12-15T13:55:15Z</time>
      </trkpt>
      <trkpt lat="44.71985" lon="4.85991">
        <ele>404.85</ele>
        <time>2015-12-15T13:55:16Z</time>
      </trkpt>
      <trkpt lat="44.71985" lon="4.85994">
        <ele>404.85</ele>
        <time>2015-12-15T13:55:17Z</time>
      </trkpt>
      <trkpt lat="44.71981" lon="4.86032">
        <ele>407.74</ele>
        <time>2015-12-15T13:55:30Z</time>
      </trkpt>
      <trkpt lat="44.71974" lon="4.86045">
        <ele>409.18</ele>
        <time>2015-12-15T13:55:37Z</time>
      </trkpt>
      <trkpt lat="44.71972" lon="4.86051">
        <ele>410.14</ele>
        <time>2015-12-15T13:55:41Z</time>
      </trkpt>
      <trkpt lat="44.71967" lon="4.86067">
        <ele>411.1</ele>
        <time>2015-12-15T13:55:53Z</time>
      </trkpt>
      <trkpt lat="44.71956" lon="4.86071">
        <ele>412.06</ele>
        <time>2015-12-15T13:56:05Z</time>
      </trkpt>
      <trkpt lat="44.71956" lon="4.86078">
        <ele>411.1</ele>
        <time>2015-12-15T13:56:21Z</time>
      </trkpt>
      <trkpt lat="44.71958" lon="4.86077">
        <ele>411.1</ele>
        <time>2015-12-15T13:56:41Z</time>
      </trkpt>
      <trkpt lat="44.71955" lon="4.86075">
        <ele>411.58</ele>
        <time>2015-12-15T13:56:53Z</time>
      </trkpt>
      <trkpt lat="44.71956" lon="4.86076">
        <ele>411.58</ele>
        <time>2015-12-15T13:57:10Z</time>
      </trkpt>
      <trkpt lat="44.71961" lon="4.86077">
        <ele>412.06</ele>
        <time>2015-12-15T13:57:20Z</time>
      </trkpt>
      <trkpt lat="44.71962" lon="4.86076">
        <ele>411.58</ele>
        <time>2015-12-15T13:57:34Z</time>
      </trkpt>
      <trkpt lat="44.71959" lon="4.86076">
        <ele>411.58</ele>
        <time>2015-12-15T13:57:51Z</time>
      </trkpt>
      <trkpt lat="44.71954" lon="4.86084">
        <ele>411.58</ele>
        <time>2015-12-15T13:58:18Z</time>
      </trkpt>
      <trkpt lat="44.71952" lon="4.86079">
        <ele>412.06</ele>
        <time>2015-12-15T13:58:37Z</time>
      </trkpt>
      <trkpt lat="44.71953" lon="4.86076">
        <ele>411.58</ele>
        <time>2015-12-15T13:58:53Z</time>
      </trkpt>
      <trkpt lat="44.71953" lon="4.86077">
        <ele>411.58</ele>
        <time>2015-12-15T13:59:16Z</time>
      </trkpt>
      <trkpt lat="44.7195" lon="4.86078">
        <ele>412.06</ele>
        <time>2015-12-15T13:59:38Z</time>
      </trkpt>
      <trkpt lat="44.71953" lon="4.86077">
        <ele>412.06</ele>
        <time>2015-12-15T14:00:03Z</time>
      </trkpt>
      <trkpt lat="44.71955" lon="4.86075">
        <ele>412.06</ele>
        <time>2015-12-15T14:00:16Z</time>
      </trkpt>
      <trkpt lat="44.7195" lon="4.86076">
        <ele>411.58</ele>
        <time>2015-12-15T14:00:31Z</time>
      </trkpt>
      <trkpt lat="44.71947" lon="4.86079">
        <ele>412.06</ele>
        <time>2015-12-15T14:00:57Z</time>
      </trkpt>
      <trkpt lat="44.71947" lon="4.86082">
        <ele>412.06</ele>
        <time>2015-12-15T14:01:16Z</time>
      </trkpt>
      <trkpt lat="44.71951" lon="4.86077">
        <ele>411.58</ele>
        <time>2015-12-15T14:01:31Z</time>
      </trkpt>
      <trkpt lat="44.71954" lon="4.86076">
        <ele>411.58</ele>
        <time>2015-12-15T14:01:48Z</time>
      </trkpt>
      <trkpt lat="44.71956" lon="4.86073">
        <ele>411.1</ele>
        <time>2015-12-15T14:02:10Z</time>
      </trkpt>
      <trkpt lat="44.71953" lon="4.86078">
        <ele>411.58</ele>
        <time>2015-12-15T14:02:23Z</time>
      </trkpt>
      <trkpt lat="44.71952" lon="4.86079">
        <ele>411.58</ele>
        <time>2015-12-15T14:02:24Z</time>
      </trkpt>
      <trkpt lat="44.71951" lon="4.86081">
        <ele>411.58</ele>
        <time>2015-12-15T14:02:25Z</time>
      </trkpt>
      <trkpt lat="44.7195" lon="4.86084">
        <ele>411.58</ele>
        <time>2015-12-15T14:02:26Z</time>
      </trkpt>
      <trkpt lat="44.71949" lon="4.86087">
        <ele>411.1</ele>
        <time>2015-12-15T14:02:27Z</time>
      </trkpt>
      <trkpt lat="44.71942" lon="4.86122">
        <ele>407.74</ele>
        <time>2015-12-15T14:02:37Z</time>
      </trkpt>
      <trkpt lat="44.71938" lon="4.86143">
        <ele>405.81</ele>
        <time>2015-12-15T14:02:42Z</time>
      </trkpt>
      <trkpt lat="44.71936" lon="4.86166">
        <ele>402.93</ele>
        <time>2015-12-15T14:02:47Z</time>
      </trkpt>
      <trkpt lat="44.71936" lon="4.86171">
        <ele>402.93</ele>
        <time>2015-12-15T14:02:48Z</time>
      </trkpt>
      <trkpt lat="44.71935" lon="4.86201">
        <ele>399.57</ele>
        <time>2015-12-15T14:02:54Z</time>
      </trkpt>
      <trkpt lat="44.71933" lon="4.8624">
        <ele>396.2</ele>
        <time>2015-12-15T14:03:03Z</time>
      </trkpt>
      <trkpt lat="44.71933" lon="4.86242">
        <ele>396.2</ele>
        <time>2015-12-15T14:03:04Z</time>
      </trkpt>
      <trkpt lat="44.71933" lon="4.86249">
        <ele>396.2</ele>
        <time>2015-12-15T14:03:14Z</time>
      </trkpt>
      <trkpt lat="44.71934" lon="4.86248">
        <ele>396.2</ele>
        <time>2015-12-15T14:03:16Z</time>
      </trkpt>
      <trkpt lat="44.71935" lon="4.86247">
        <ele>396.2</ele>
        <time>2015-12-15T14:03:17Z</time>
      </trkpt>
      <trkpt lat="44.71938" lon="4.86245">
        <ele>396.68</ele>
        <time>2015-12-15T14:03:21Z</time>
      </trkpt>
      <trkpt lat="44.7194" lon="4.86245">
        <ele>396.2</ele>
        <time>2015-12-15T14:03:22Z</time>
      </trkpt>
      <trkpt lat="44.71942" lon="4.86246">
        <ele>395.72</ele>
        <time>2015-12-15T14:03:23Z</time>
      </trkpt>
      <trkpt lat="44.71945" lon="4.86246">
        <ele>395.72</ele>
        <time>2015-12-15T14:03:24Z</time>
      </trkpt>
      <trkpt lat="44.71949" lon="4.86247">
        <ele>395.72</ele>
        <time>2015-12-15T14:03:25Z</time>
      </trkpt>
      <trkpt lat="44.71952" lon="4.86247">
        <ele>395.24</ele>
        <time>2015-12-15T14:03:26Z</time>
      </trkpt>
      <trkpt lat="44.71974" lon="4.86244">
        <ele>394.28</ele>
        <time>2015-12-15T14:03:31Z</time>
      </trkpt>
      <trkpt lat="44.7198" lon="4.86242">
        <ele>393.8</ele>
        <time>2015-12-15T14:03:32Z</time>
      </trkpt>
      <trkpt lat="44.72019" lon="4.8624">
        <ele>391.39</ele>
        <time>2015-12-15T14:03:40Z</time>
      </trkpt>
      <trkpt lat="44.72053" lon="4.86241">
        <ele>388.03</ele>
        <time>2015-12-15T14:03:47Z</time>
      </trkpt>
      <trkpt lat="44.72058" lon="4.8624">
        <ele>388.03</ele>
        <time>2015-12-15T14:03:48Z</time>
      </trkpt>
      <trkpt lat="44.7207" lon="4.86238">
        <ele>386.59</ele>
        <time>2015-12-15T14:03:51Z</time>
      </trkpt>
      <trkpt lat="44.72087" lon="4.86234">
        <ele>384.66</ele>
        <time>2015-12-15T14:03:55Z</time>
      </trkpt>
      <trkpt lat="44.72115" lon="4.86229">
        <ele>381.3</ele>
        <time>2015-12-15T14:04:01Z</time>
      </trkpt>
      <trkpt lat="44.72133" lon="4.86228">
        <ele>379.86</ele>
        <time>2015-12-15T14:04:05Z</time>
      </trkpt>
      <trkpt lat="44.72162" lon="4.86229">
        <ele>376.01</ele>
        <time>2015-12-15T14:04:11Z</time>
      </trkpt>
      <trkpt lat="44.7219" lon="4.86232">
        <ele>373.13</ele>
        <time>2015-12-15T14:04:17Z</time>
      </trkpt>
      <trkpt lat="44.72195" lon="4.86233">
        <ele>372.65</ele>
        <time>2015-12-15T14:04:18Z</time>
      </trkpt>
      <trkpt lat="44.72204" lon="4.86236">
        <ele>371.69</ele>
        <time>2015-12-15T14:04:20Z</time>
      </trkpt>
      <trkpt lat="44.72208" lon="4.86239">
        <ele>371.21</ele>
        <time>2015-12-15T14:04:21Z</time>
      </trkpt>
      <trkpt lat="44.72235" lon="4.8626">
        <ele>368.32</ele>
        <time>2015-12-15T14:04:27Z</time>
      </trkpt>
      <trkpt lat="44.7227" lon="4.86279">
        <ele>365.44</ele>
        <time>2015-12-15T14:04:36Z</time>
      </trkpt>
      <trkpt lat="44.72271" lon="4.86284">
        <ele>365.44</ele>
        <time>2015-12-15T14:04:37Z</time>
      </trkpt>
      <trkpt lat="44.72276" lon="4.863">
        <ele>364</ele>
        <time>2015-12-15T14:04:40Z</time>
      </trkpt>
      <trkpt lat="44.72287" lon="4.86316">
        <ele>362.07</ele>
        <time>2015-12-15T14:04:44Z</time>
      </trkpt>
      <trkpt lat="44.72309" lon="4.8634">
        <ele>358.71</ele>
        <time>2015-12-15T14:04:50Z</time>
      </trkpt>
      <trkpt lat="44.72324" lon="4.86355">
        <ele>356.31</ele>
        <time>2015-12-15T14:04:54Z</time>
      </trkpt>
      <trkpt lat="44.72344" lon="4.86375">
        <ele>352.94</ele>
        <time>2015-12-15T14:04:59Z</time>
      </trkpt>
      <trkpt lat="44.72359" lon="4.8639">
        <ele>349.58</ele>
        <time>2015-12-15T14:05:03Z</time>
      </trkpt>
      <trkpt lat="44.72382" lon="4.86411">
        <ele>346.21</ele>
        <time>2015-12-15T14:05:09Z</time>
      </trkpt>
      <trkpt lat="44.72402" lon="4.86429">
        <ele>342.37</ele>
        <time>2015-12-15T14:05:14Z</time>
      </trkpt>
      <trkpt lat="44.72405" lon="4.86432">
        <ele>342.37</ele>
        <time>2015-12-15T14:05:15Z</time>
      </trkpt>
      <trkpt lat="44.72428" lon="4.86451">
        <ele>339</ele>
        <time>2015-12-15T14:05:21Z</time>
      </trkpt>
      <trkpt lat="44.7245" lon="4.86471">
        <ele>335.16</ele>
        <time>2015-12-15T14:05:27Z</time>
      </trkpt>
      <trkpt lat="44.72468" lon="4.86486">
        <ele>331.79</ele>
        <time>2015-12-15T14:05:32Z</time>
      </trkpt>
      <trkpt lat="44.72472" lon="4.86488">
        <ele>331.79</ele>
        <time>2015-12-15T14:05:33Z</time>
      </trkpt>
      <trkpt lat="44.72492" lon="4.86501">
        <ele>328.91</ele>
        <time>2015-12-15T14:05:38Z</time>
      </trkpt>
      <trkpt lat="44.72516" lon="4.86513">
        <ele>325.54</ele>
        <time>2015-12-15T14:05:43Z</time>
      </trkpt>
      <trkpt lat="44.72526" lon="4.86518">
        <ele>324.58</ele>
        <time>2015-12-15T14:05:45Z</time>
      </trkpt>
      <trkpt lat="44.72545" lon="4.86531">
        <ele>321.22</ele>
        <time>2015-12-15T14:05:49Z</time>
      </trkpt>
      <trkpt lat="44.72559" lon="4.86541">
        <ele>318.81</ele>
        <time>2015-12-15T14:05:52Z</time>
      </trkpt>
      <trkpt lat="44.72582" lon="4.86558">
        <ele>314.97</ele>
        <time>2015-12-15T14:05:57Z</time>
      </trkpt>
      <trkpt lat="44.7259" lon="4.86565">
        <ele>314.49</ele>
        <time>2015-12-15T14:05:59Z</time>
      </trkpt>
      <trkpt lat="44.72602" lon="4.86577">
        <ele>312.57</ele>
        <time>2015-12-15T14:06:02Z</time>
      </trkpt>
      <trkpt lat="44.72623" lon="4.86595">
        <ele>309.68</ele>
        <time>2015-12-15T14:06:07Z</time>
      </trkpt>
      <trkpt lat="44.72642" lon="4.86612">
        <ele>306.32</ele>
        <time>2015-12-15T14:06:12Z</time>
      </trkpt>
      <trkpt lat="44.72661" lon="4.8663">
        <ele>302.95</ele>
        <time>2015-12-15T14:06:17Z</time>
      </trkpt>
      <trkpt lat="44.72677" lon="4.86652">
        <ele>300.07</ele>
        <time>2015-12-15T14:06:22Z</time>
      </trkpt>
      <trkpt lat="44.72686" lon="4.86667">
        <ele>298.15</ele>
        <time>2015-12-15T14:06:25Z</time>
      </trkpt>
      <trkpt lat="44.72688" lon="4.86672">
        <ele>296.7</ele>
        <time>2015-12-15T14:06:26Z</time>
      </trkpt>
      <trkpt lat="44.7269" lon="4.86677">
        <ele>297.18</ele>
        <time>2015-12-15T14:06:27Z</time>
      </trkpt>
      <trkpt lat="44.72699" lon="4.86696">
        <ele>293.82</ele>
        <time>2015-12-15T14:06:31Z</time>
      </trkpt>
      <trkpt lat="44.72703" lon="4.86706">
        <ele>292.38</ele>
        <time>2015-12-15T14:06:33Z</time>
      </trkpt>
      <trkpt lat="44.72708" lon="4.86716">
        <ele>291.42</ele>
        <time>2015-12-15T14:06:35Z</time>
      </trkpt>
      <trkpt lat="44.72713" lon="4.86727">
        <ele>289.97</ele>
        <time>2015-12-15T14:06:37Z</time>
      </trkpt>
      <trkpt lat="44.72716" lon="4.86732">
        <ele>289.97</ele>
        <time>2015-12-15T14:06:38Z</time>
      </trkpt>
      <trkpt lat="44.72726" lon="4.86748">
        <ele>287.57</ele>
        <time>2015-12-15T14:06:42Z</time>
      </trkpt>
      <trkpt lat="44.72731" lon="4.86757">
        <ele>286.13</ele>
        <time>2015-12-15T14:06:44Z</time>
      </trkpt>
      <trkpt lat="44.72734" lon="4.86761">
        <ele>285.65</ele>
        <time>2015-12-15T14:06:45Z</time>
      </trkpt>
      <trkpt lat="44.72737" lon="4.86764">
        <ele>285.17</ele>
        <time>2015-12-15T14:06:46Z</time>
      </trkpt>
      <trkpt lat="44.72746" lon="4.86774">
        <ele>283.73</ele>
        <time>2015-12-15T14:06:49Z</time>
      </trkpt>
      <trkpt lat="44.72761" lon="4.86788">
        <ele>280.36</ele>
        <time>2015-12-15T14:06:54Z</time>
      </trkpt>
      <trkpt lat="44.72767" lon="4.86795">
        <ele>279.4</ele>
        <time>2015-12-15T14:06:56Z</time>
      </trkpt>
      <trkpt lat="44.72779" lon="4.86808">
        <ele>277.48</ele>
        <time>2015-12-15T14:07:00Z</time>
      </trkpt>
      <trkpt lat="44.72783" lon="4.86811">
        <ele>276.52</ele>
        <time>2015-12-15T14:07:01Z</time>
      </trkpt>
      <trkpt lat="44.72786" lon="4.86814">
        <ele>276.52</ele>
        <time>2015-12-15T14:07:02Z</time>
      </trkpt>
      <trkpt lat="44.72808" lon="4.8683">
        <ele>272.67</ele>
        <time>2015-12-15T14:07:08Z</time>
      </trkpt>
      <trkpt lat="44.72831" lon="4.86839">
        <ele>270.27</ele>
        <time>2015-12-15T14:07:13Z</time>
      </trkpt>
      <trkpt lat="44.72849" lon="4.86848">
        <ele>267.38</ele>
        <time>2015-12-15T14:07:18Z</time>
      </trkpt>
      <trkpt lat="44.72861" lon="4.86859">
        <ele>266.42</ele>
        <time>2015-12-15T14:07:21Z</time>
      </trkpt>
      <trkpt lat="44.72889" lon="4.86902">
        <ele>263.06</ele>
        <time>2015-12-15T14:07:29Z</time>
      </trkpt>
      <trkpt lat="44.72891" lon="4.86907">
        <ele>263.06</ele>
        <time>2015-12-15T14:07:30Z</time>
      </trkpt>
      <trkpt lat="44.72917" lon="4.86973">
        <ele>259.69</ele>
        <time>2015-12-15T14:07:39Z</time>
      </trkpt>
      <trkpt lat="44.72919" lon="4.86981">
        <ele>259.21</ele>
        <time>2015-12-15T14:07:40Z</time>
      </trkpt>
      <trkpt lat="44.72927" lon="4.87008">
        <ele>257.77</ele>
        <time>2015-12-15T14:07:44Z</time>
      </trkpt>
      <trkpt lat="44.72939" lon="4.87058">
        <ele>255.37</ele>
        <time>2015-12-15T14:07:52Z</time>
      </trkpt>
      <trkpt lat="44.72946" lon="4.87084">
        <ele>253.93</ele>
        <time>2015-12-15T14:07:56Z</time>
      </trkpt>
      <trkpt lat="44.72946" lon="4.8709">
        <ele>253.44</ele>
        <time>2015-12-15T14:07:57Z</time>
      </trkpt>
      <trkpt lat="44.72945" lon="4.87096">
        <ele>253.44</ele>
        <time>2015-12-15T14:07:58Z</time>
      </trkpt>
      <trkpt lat="44.72944" lon="4.87102">
        <ele>252.96</ele>
        <time>2015-12-15T14:07:59Z</time>
      </trkpt>
      <trkpt lat="44.72944" lon="4.87109">
        <ele>253.44</ele>
        <time>2015-12-15T14:08:00Z</time>
      </trkpt>
      <trkpt lat="44.72943" lon="4.87115">
        <ele>252</ele>
        <time>2015-12-15T14:08:01Z</time>
      </trkpt>
      <trkpt lat="44.72944" lon="4.8712">
        <ele>252</ele>
        <time>2015-12-15T14:08:02Z</time>
      </trkpt>
      <trkpt lat="44.72945" lon="4.87125">
        <ele>252</ele>
        <time>2015-12-15T14:08:03Z</time>
      </trkpt>
      <trkpt lat="44.72948" lon="4.87129">
        <ele>251.52</ele>
        <time>2015-12-15T14:08:04Z</time>
      </trkpt>
      <trkpt lat="44.72951" lon="4.87133">
        <ele>252</ele>
        <time>2015-12-15T14:08:05Z</time>
      </trkpt>
      <trkpt lat="44.72968" lon="4.87157">
        <ele>250.08</ele>
        <time>2015-12-15T14:08:10Z</time>
      </trkpt>
      <trkpt lat="44.72971" lon="4.87164">
        <ele>250.08</ele>
        <time>2015-12-15T14:08:11Z</time>
      </trkpt>
      <trkpt lat="44.72974" lon="4.8717">
        <ele>249.6</ele>
        <time>2015-12-15T14:08:12Z</time>
      </trkpt>
      <trkpt lat="44.72993" lon="4.8723">
        <ele>246.72</ele>
        <time>2015-12-15T14:08:20Z</time>
      </trkpt>
      <trkpt lat="44.73007" lon="4.8727">
        <ele>244.31</ele>
        <time>2015-12-15T14:08:25Z</time>
      </trkpt>
      <trkpt lat="44.73015" lon="4.87282">
        <ele>243.35</ele>
        <time>2015-12-15T14:08:27Z</time>
      </trkpt>
      <trkpt lat="44.73019" lon="4.87288">
        <ele>242.87</ele>
        <time>2015-12-15T14:08:28Z</time>
      </trkpt>
      <trkpt lat="44.73033" lon="4.87313">
        <ele>241.43</ele>
        <time>2015-12-15T14:08:32Z</time>
      </trkpt>
      <trkpt lat="44.73046" lon="4.8734">
        <ele>239.99</ele>
        <time>2015-12-15T14:08:36Z</time>
      </trkpt>
      <trkpt lat="44.73086" lon="4.87393">
        <ele>236.62</ele>
        <time>2015-12-15T14:08:44Z</time>
      </trkpt>
      <trkpt lat="44.73109" lon="4.87418">
        <ele>233.26</ele>
        <time>2015-12-15T14:08:48Z</time>
      </trkpt>
      <trkpt lat="44.7312" lon="4.87428">
        <ele>232.3</ele>
        <time>2015-12-15T14:08:50Z</time>
      </trkpt>
      <trkpt lat="44.73126" lon="4.87432">
        <ele>232.3</ele>
        <time>2015-12-15T14:08:51Z</time>
      </trkpt>
      <trkpt lat="44.73132" lon="4.87436">
        <ele>231.33</ele>
        <time>2015-12-15T14:08:52Z</time>
      </trkpt>
      <trkpt lat="44.73138" lon="4.87439">
        <ele>230.85</ele>
        <time>2015-12-15T14:08:53Z</time>
      </trkpt>
      <trkpt lat="44.73145" lon="4.87442">
        <ele>230.37</ele>
        <time>2015-12-15T14:08:54Z</time>
      </trkpt>
      <trkpt lat="44.73179" lon="4.87454">
        <ele>227.49</ele>
        <time>2015-12-15T14:08:59Z</time>
      </trkpt>
      <trkpt lat="44.73186" lon="4.87458">
        <ele>227.01</ele>
        <time>2015-12-15T14:09:00Z</time>
      </trkpt>
      <trkpt lat="44.73192" lon="4.87464">
        <ele>227.01</ele>
        <time>2015-12-15T14:09:01Z</time>
      </trkpt>
      <trkpt lat="44.73198" lon="4.8747">
        <ele>226.53</ele>
        <time>2015-12-15T14:09:02Z</time>
      </trkpt>
      <trkpt lat="44.73204" lon="4.87477">
        <ele>226.05</ele>
        <time>2015-12-15T14:09:03Z</time>
      </trkpt>
      <trkpt lat="44.7321" lon="4.87483">
        <ele>226.05</ele>
        <time>2015-12-15T14:09:04Z</time>
      </trkpt>
      <trkpt lat="44.73248" lon="4.87545">
        <ele>222.68</ele>
        <time>2015-12-15T14:09:12Z</time>
      </trkpt>
      <trkpt lat="44.73311" lon="4.87607">
        <ele>220.28</ele>
        <time>2015-12-15T14:09:23Z</time>
      </trkpt>
      <trkpt lat="44.73356" lon="4.87644">
        <ele>217.4</ele>
        <time>2015-12-15T14:09:34Z</time>
      </trkpt>
      <trkpt lat="44.73355" lon="4.87645">
        <ele>217.4</ele>
        <time>2015-12-15T14:09:48Z</time>
      </trkpt>
      <trkpt lat="44.73375" lon="4.87662">
        <ele>216.91</ele>
        <time>2015-12-15T14:09:59Z</time>
      </trkpt>
      <trkpt lat="44.7339" lon="4.87682">
        <ele>216.91</ele>
        <time>2015-12-15T14:10:04Z</time>
      </trkpt>
      <trkpt lat="44.73394" lon="4.87684">
        <ele>216.43</ele>
        <time>2015-12-15T14:10:05Z</time>
      </trkpt>
      <trkpt lat="44.73398" lon="4.87684">
        <ele>215.95</ele>
        <time>2015-12-15T14:10:06Z</time>
      </trkpt>
      <trkpt lat="44.73403" lon="4.87684">
        <ele>216.43</ele>
        <time>2015-12-15T14:10:07Z</time>
      </trkpt>
      <trkpt lat="44.73407" lon="4.87684">
        <ele>216.43</ele>
        <time>2015-12-15T14:10:08Z</time>
      </trkpt>
      <trkpt lat="44.73445" lon="4.87679">
        <ele>215.47</ele>
        <time>2015-12-15T14:10:16Z</time>
      </trkpt>
      <trkpt lat="44.73518" lon="4.87689">
        <ele>214.99</ele>
        <time>2015-12-15T14:10:31Z</time>
      </trkpt>
      <trkpt lat="44.73605" lon="4.87689">
        <ele>212.11</ele>
        <time>2015-12-15T14:10:45Z</time>
      </trkpt>
      <trkpt lat="44.7361" lon="4.87691">
        <ele>212.59</ele>
        <time>2015-12-15T14:10:46Z</time>
      </trkpt>
      <trkpt lat="44.73615" lon="4.87694">
        <ele>212.11</ele>
        <time>2015-12-15T14:10:47Z</time>
      </trkpt>
      <trkpt lat="44.737" lon="4.87751">
        <ele>209.7</ele>
        <time>2015-12-15T14:11:01Z</time>
      </trkpt>
      <trkpt lat="44.73773" lon="4.87821">
        <ele>206.34</ele>
        <time>2015-12-15T14:11:13Z</time>
      </trkpt>
      <trkpt lat="44.73851" lon="4.87887">
        <ele>203.46</ele>
        <time>2015-12-15T14:11:25Z</time>
      </trkpt>
      <trkpt lat="44.73884" lon="4.87916">
        <ele>202.01</ele>
        <time>2015-12-15T14:11:30Z</time>
      </trkpt>
      <trkpt lat="44.7389" lon="4.87924">
        <ele>202.01</ele>
        <time>2015-12-15T14:11:31Z</time>
      </trkpt>
      <trkpt lat="44.73895" lon="4.87932">
        <ele>201.53</ele>
        <time>2015-12-15T14:11:32Z</time>
      </trkpt>
      <trkpt lat="44.73899" lon="4.8794">
        <ele>201.05</ele>
        <time>2015-12-15T14:11:33Z</time>
      </trkpt>
      <trkpt lat="44.73904" lon="4.87949">
        <ele>200.09</ele>
        <time>2015-12-15T14:11:34Z</time>
      </trkpt>
      <trkpt lat="44.73909" lon="4.87958">
        <ele>199.61</ele>
        <time>2015-12-15T14:11:35Z</time>
      </trkpt>
      <trkpt lat="44.73939" lon="4.88027">
        <ele>196.73</ele>
        <time>2015-12-15T14:11:42Z</time>
      </trkpt>
      <trkpt lat="44.73955" lon="4.88068">
        <ele>193.84</ele>
        <time>2015-12-15T14:11:47Z</time>
      </trkpt>
      <trkpt lat="44.73982" lon="4.88131">
        <ele>190.48</ele>
        <time>2015-12-15T14:11:55Z</time>
      </trkpt>
      <trkpt lat="44.73986" lon="4.88138">
        <ele>190.48</ele>
        <time>2015-12-15T14:11:56Z</time>
      </trkpt>
      <trkpt lat="44.73991" lon="4.88146">
        <ele>190</ele>
        <time>2015-12-15T14:11:57Z</time>
      </trkpt>
      <trkpt lat="44.74028" lon="4.8821">
        <ele>186.63</ele>
        <time>2015-12-15T14:12:05Z</time>
      </trkpt>
      <trkpt lat="44.74033" lon="4.88216">
        <ele>186.63</ele>
        <time>2015-12-15T14:12:06Z</time>
      </trkpt>
      <trkpt lat="44.74038" lon="4.88221">
        <ele>186.15</ele>
        <time>2015-12-15T14:12:07Z</time>
      </trkpt>
      <trkpt lat="44.74043" lon="4.88226">
        <ele>185.67</ele>
        <time>2015-12-15T14:12:08Z</time>
      </trkpt>
      <trkpt lat="44.74118" lon="4.88278">
        <ele>182.79</ele>
        <time>2015-12-15T14:12:19Z</time>
      </trkpt>
      <trkpt lat="44.74139" lon="4.88294">
        <ele>181.35</ele>
        <time>2015-12-15T14:12:22Z</time>
      </trkpt>
      <trkpt lat="44.74176" lon="4.88319">
        <ele>178.46</ele>
        <time>2015-12-15T14:12:27Z</time>
      </trkpt>
      <trkpt lat="44.74203" lon="4.88338">
        <ele>176.06</ele>
        <time>2015-12-15T14:12:31Z</time>
      </trkpt>
      <trkpt lat="44.74265" lon="4.88373">
        <ele>172.69</ele>
        <time>2015-12-15T14:12:40Z</time>
      </trkpt>
      <trkpt lat="44.74295" lon="4.88385">
        <ele>171.25</ele>
        <time>2015-12-15T14:12:45Z</time>
      </trkpt>
      <trkpt lat="44.74306" lon="4.88392">
        <ele>169.33</ele>
        <time>2015-12-15T14:12:47Z</time>
      </trkpt>
      <trkpt lat="44.74311" lon="4.88397">
        <ele>169.33</ele>
        <time>2015-12-15T14:12:48Z</time>
      </trkpt>
      <trkpt lat="44.74327" lon="4.88413">
        <ele>167.89</ele>
        <time>2015-12-15T14:12:51Z</time>
      </trkpt>
      <trkpt lat="44.74349" lon="4.8845">
        <ele>165.96</ele>
        <time>2015-12-15T14:12:57Z</time>
      </trkpt>
      <trkpt lat="44.74352" lon="4.88455">
        <ele>165.96</ele>
        <time>2015-12-15T14:12:58Z</time>
      </trkpt>
      <trkpt lat="44.74375" lon="4.88472">
        <ele>165.96</ele>
        <time>2015-12-15T14:13:04Z</time>
      </trkpt>
      <trkpt lat="44.74379" lon="4.88475">
        <ele>165.96</ele>
        <time>2015-12-15T14:13:05Z</time>
      </trkpt>
      <trkpt lat="44.74456" lon="4.88506">
        <ele>163.08</ele>
        <time>2015-12-15T14:13:19Z</time>
      </trkpt>
      <trkpt lat="44.74531" lon="4.88544">
        <ele>160.68</ele>
        <time>2015-12-15T14:13:32Z</time>
      </trkpt>
      <trkpt lat="44.74604" lon="4.88599">
        <ele>157.79</ele>
        <time>2015-12-15T14:13:45Z</time>
      </trkpt>
      <trkpt lat="44.74615" lon="4.88607">
        <ele>156.83</ele>
        <time>2015-12-15T14:13:47Z</time>
      </trkpt>
      <trkpt lat="44.74655" lon="4.88631">
        <ele>155.39</ele>
        <time>2015-12-15T14:13:54Z</time>
      </trkpt>
      <trkpt lat="44.74694" lon="4.88653">
        <ele>154.43</ele>
        <time>2015-12-15T14:14:01Z</time>
      </trkpt>
      <trkpt lat="44.74725" lon="4.8868">
        <ele>152.51</ele>
        <time>2015-12-15T14:14:08Z</time>
      </trkpt>
      <trkpt lat="44.74729" lon="4.88681">
        <ele>152.03</ele>
        <time>2015-12-15T14:14:09Z</time>
      </trkpt>
      <trkpt lat="44.74734" lon="4.8868">
        <ele>152.03</ele>
        <time>2015-12-15T14:14:10Z</time>
      </trkpt>
      <trkpt lat="44.74745" lon="4.88676">
        <ele>150.58</ele>
        <time>2015-12-15T14:14:18Z</time>
      </trkpt>
      <trkpt lat="44.74746" lon="4.88673">
        <ele>150.58</ele>
        <time>2015-12-15T14:14:33Z</time>
      </trkpt>
      <trkpt lat="44.74747" lon="4.88675">
        <ele>150.58</ele>
        <time>2015-12-15T14:14:41Z</time>
      </trkpt>
      <trkpt lat="44.74748" lon="4.88676">
        <ele>151.06</ele>
        <time>2015-12-15T14:14:42Z</time>
      </trkpt>
      <trkpt lat="44.74749" lon="4.88678">
        <ele>151.06</ele>
        <time>2015-12-15T14:14:43Z</time>
      </trkpt>
      <trkpt lat="44.7475" lon="4.8868">
        <ele>151.06</ele>
        <time>2015-12-15T14:14:44Z</time>
      </trkpt>
      <trkpt lat="44.74751" lon="4.88682">
        <ele>151.06</ele>
        <time>2015-12-15T14:14:45Z</time>
      </trkpt>
      <trkpt lat="44.74753" lon="4.88691">
        <ele>151.06</ele>
        <time>2015-12-15T14:14:50Z</time>
      </trkpt>
      <trkpt lat="44.74753" lon="4.88696">
        <ele>151.06</ele>
        <time>2015-12-15T14:14:51Z</time>
      </trkpt>
      <trkpt lat="44.74751" lon="4.887">
        <ele>151.54</ele>
        <time>2015-12-15T14:14:52Z</time>
      </trkpt>
      <trkpt lat="44.74749" lon="4.88707">
        <ele>151.06</ele>
        <time>2015-12-15T14:14:54Z</time>
      </trkpt>
      <trkpt lat="44.74749" lon="4.88711">
        <ele>151.54</ele>
        <time>2015-12-15T14:14:55Z</time>
      </trkpt>
      <trkpt lat="44.7475" lon="4.88718">
        <ele>151.06</ele>
        <time>2015-12-15T14:14:56Z</time>
      </trkpt>
      <trkpt lat="44.74752" lon="4.88724">
        <ele>151.06</ele>
        <time>2015-12-15T14:14:57Z</time>
      </trkpt>
      <trkpt lat="44.74756" lon="4.88732">
        <ele>151.06</ele>
        <time>2015-12-15T14:14:58Z</time>
      </trkpt>
      <trkpt lat="44.74804" lon="4.88819">
        <ele>148.66</ele>
        <time>2015-12-15T14:15:10Z</time>
      </trkpt>
      <trkpt lat="44.74853" lon="4.88909">
        <ele>146.26</ele>
        <time>2015-12-15T14:15:22Z</time>
      </trkpt>
      <trkpt lat="44.74858" lon="4.88912">
        <ele>145.3</ele>
        <time>2015-12-15T14:15:23Z</time>
      </trkpt>
      <trkpt lat="44.74863" lon="4.88913">
        <ele>144.34</ele>
        <time>2015-12-15T14:15:24Z</time>
      </trkpt>
      <trkpt lat="44.74868" lon="4.88911">
        <ele>144.82</ele>
        <time>2015-12-15T14:15:25Z</time>
      </trkpt>
      <trkpt lat="44.74873" lon="4.88907">
        <ele>144.82</ele>
        <time>2015-12-15T14:15:26Z</time>
      </trkpt>
      <trkpt lat="44.74877" lon="4.88902">
        <ele>144.82</ele>
        <time>2015-12-15T14:15:27Z</time>
      </trkpt>
      <trkpt lat="44.74881" lon="4.88897">
        <ele>145.3</ele>
        <time>2015-12-15T14:15:28Z</time>
      </trkpt>
      <trkpt lat="44.74885" lon="4.88891">
        <ele>144.82</ele>
        <time>2015-12-15T14:15:29Z</time>
      </trkpt>
      <trkpt lat="44.74889" lon="4.88884">
        <ele>145.3</ele>
        <time>2015-12-15T14:15:30Z</time>
      </trkpt>
      <trkpt lat="44.74946" lon="4.88781">
        <ele>144.34</ele>
        <time>2015-12-15T14:15:46Z</time>
      </trkpt>
      <trkpt lat="44.74951" lon="4.88779">
        <ele>143.85</ele>
        <time>2015-12-15T14:15:47Z</time>
      </trkpt>
      <trkpt lat="44.74956" lon="4.88778">
        <ele>144.34</ele>
        <time>2015-12-15T14:15:48Z</time>
      </trkpt>
      <trkpt lat="44.7503" lon="4.88791">
        <ele>142.89</ele>
        <time>2015-12-15T14:16:01Z</time>
      </trkpt>
      <trkpt lat="44.75115" lon="4.88815">
        <ele>141.93</ele>
        <time>2015-12-15T14:16:17Z</time>
      </trkpt>
      <trkpt lat="44.75147" lon="4.88823">
        <ele>141.45</ele>
        <time>2015-12-15T14:16:24Z</time>
      </trkpt>
      <trkpt lat="44.75151" lon="4.88823">
        <ele>141.45</ele>
        <time>2015-12-15T14:16:25Z</time>
      </trkpt>
      <trkpt lat="44.75164" lon="4.88826">
        <ele>140.97</ele>
        <time>2015-12-15T14:16:28Z</time>
      </trkpt>
      <trkpt lat="44.75184" lon="4.88838">
        <ele>140.97</ele>
        <time>2015-12-15T14:16:34Z</time>
      </trkpt>
      <trkpt lat="44.75185" lon="4.88843">
        <ele>140.97</ele>
        <time>2015-12-15T14:16:35Z</time>
      </trkpt>
      <trkpt lat="44.75183" lon="4.88847">
        <ele>140.97</ele>
        <time>2015-12-15T14:16:36Z</time>
      </trkpt>
      <trkpt lat="44.75149" lon="4.88928">
        <ele>141.93</ele>
        <time>2015-12-15T14:16:53Z</time>
      </trkpt>
      <trkpt lat="44.75118" lon="4.8901">
        <ele>142.41</ele>
        <time>2015-12-15T14:17:09Z</time>
      </trkpt>
      <trkpt lat="44.75096" lon="4.89072">
        <ele>143.37</ele>
        <time>2015-12-15T14:17:24Z</time>
      </trkpt>
      <trkpt lat="44.7508" lon="4.89118">
        <ele>142.89</ele>
        <time>2015-12-15T14:17:34Z</time>
      </trkpt>
      <trkpt lat="44.75051" lon="4.89187">
        <ele>142.41</ele>
        <time>2015-12-15T14:17:48Z</time>
      </trkpt>
      <trkpt lat="44.75017" lon="4.89274">
        <ele>141.93</ele>
        <time>2015-12-15T14:18:05Z</time>
      </trkpt>
      <trkpt lat="44.74979" lon="4.89373">
        <ele>142.41</ele>
        <time>2015-12-15T14:18:26Z</time>
      </trkpt>
      <trkpt lat="44.74949" lon="4.89455">
        <ele>142.41</ele>
        <time>2015-12-15T14:18:44Z</time>
      </trkpt>
      <trkpt lat="44.74924" lon="4.8952">
        <ele>143.37</ele>
        <time>2015-12-15T14:19:00Z</time>
      </trkpt>
      <trkpt lat="44.74896" lon="4.89593">
        <ele>143.85</ele>
        <time>2015-12-15T14:19:17Z</time>
      </trkpt>
      <trkpt lat="44.74867" lon="4.8967">
        <ele>143.37</ele>
        <time>2015-12-15T14:19:33Z</time>
      </trkpt>
      <trkpt lat="44.74831" lon="4.89762">
        <ele>143.85</ele>
        <time>2015-12-15T14:19:51Z</time>
      </trkpt>
      <trkpt lat="44.74803" lon="4.89836">
        <ele>143.37</ele>
        <time>2015-12-15T14:20:06Z</time>
      </trkpt>
      <trkpt lat="44.74776" lon="4.89906">
        <ele>143.37</ele>
        <time>2015-12-15T14:20:21Z</time>
      </trkpt>
      <trkpt lat="44.74746" lon="4.89984">
        <ele>144.34</ele>
        <time>2015-12-15T14:20:38Z</time>
      </trkpt>
      <trkpt lat="44.74723" lon="4.90046">
        <ele>144.34</ele>
        <time>2015-12-15T14:20:53Z</time>
      </trkpt>
      <trkpt lat="44.74678" lon="4.90163">
        <ele>144.82</ele>
        <time>2015-12-15T14:21:17Z</time>
      </trkpt>
      <trkpt lat="44.74644" lon="4.90254">
        <ele>145.3</ele>
        <time>2015-12-15T14:21:37Z</time>
      </trkpt>
      <trkpt lat="44.74611" lon="4.90341">
        <ele>147.7</ele>
        <time>2015-12-15T14:21:57Z</time>
      </trkpt>
      <trkpt lat="44.74595" lon="4.90378">
        <ele>147.22</ele>
        <time>2015-12-15T14:22:05Z</time>
      </trkpt>
      <trkpt lat="44.74568" lon="4.90456">
        <ele>146.26</ele>
        <time>2015-12-15T14:22:20Z</time>
      </trkpt>
      <trkpt lat="44.74525" lon="4.90571">
        <ele>146.26</ele>
        <time>2015-12-15T14:22:43Z</time>
      </trkpt>
      <trkpt lat="44.74488" lon="4.90662">
        <ele>146.74</ele>
        <time>2015-12-15T14:23:01Z</time>
      </trkpt>
      <trkpt lat="44.74451" lon="4.90762">
        <ele>146.26</ele>
        <time>2015-12-15T14:23:20Z</time>
      </trkpt>
      <trkpt lat="44.74416" lon="4.90849">
        <ele>147.7</ele>
        <time>2015-12-15T14:23:36Z</time>
      </trkpt>
      <trkpt lat="44.74381" lon="4.90938">
        <ele>147.7</ele>
        <time>2015-12-15T14:23:53Z</time>
      </trkpt>
      <trkpt lat="44.74345" lon="4.91033">
        <ele>147.7</ele>
        <time>2015-12-15T14:24:10Z</time>
      </trkpt>
      <trkpt lat="44.7431" lon="4.91128">
        <ele>148.18</ele>
        <time>2015-12-15T14:24:27Z</time>
      </trkpt>
      <trkpt lat="44.74269" lon="4.9123">
        <ele>149.14</ele>
        <time>2015-12-15T14:24:47Z</time>
      </trkpt>
      <trkpt lat="44.74246" lon="4.91295">
        <ele>149.14</ele>
        <time>2015-12-15T14:25:01Z</time>
      </trkpt>
      <trkpt lat="44.74243" lon="4.91305">
        <ele>149.14</ele>
        <time>2015-12-15T14:25:03Z</time>
      </trkpt>
      <trkpt lat="44.7424" lon="4.9131">
        <ele>149.62</ele>
        <time>2015-12-15T14:25:04Z</time>
      </trkpt>
      <trkpt lat="44.74238" lon="4.91315">
        <ele>149.14</ele>
        <time>2015-12-15T14:25:05Z</time>
      </trkpt>
      <trkpt lat="44.74208" lon="4.91391">
        <ele>150.58</ele>
        <time>2015-12-15T14:25:21Z</time>
      </trkpt>
      <trkpt lat="44.74177" lon="4.91468">
        <ele>151.06</ele>
        <time>2015-12-15T14:25:36Z</time>
      </trkpt>
      <trkpt lat="44.74165" lon="4.9149">
        <ele>151.54</ele>
        <time>2015-12-15T14:25:41Z</time>
      </trkpt>
      <trkpt lat="44.74161" lon="4.91494">
        <ele>151.54</ele>
        <time>2015-12-15T14:25:42Z</time>
      </trkpt>
      <trkpt lat="44.74157" lon="4.91497">
        <ele>151.54</ele>
        <time>2015-12-15T14:25:43Z</time>
      </trkpt>
      <trkpt lat="44.74153" lon="4.91499">
        <ele>151.54</ele>
        <time>2015-12-15T14:25:44Z</time>
      </trkpt>
      <trkpt lat="44.74149" lon="4.91502">
        <ele>151.54</ele>
        <time>2015-12-15T14:25:45Z</time>
      </trkpt>
      <trkpt lat="44.7413" lon="4.91514">
        <ele>151.06</ele>
        <time>2015-12-15T14:25:50Z</time>
      </trkpt>
      <trkpt lat="44.74126" lon="4.91518">
        <ele>151.06</ele>
        <time>2015-12-15T14:25:51Z</time>
      </trkpt>
      <trkpt lat="44.74124" lon="4.91522">
        <ele>151.06</ele>
        <time>2015-12-15T14:25:52Z</time>
      </trkpt>
      <trkpt lat="44.74123" lon="4.91527">
        <ele>151.06</ele>
        <time>2015-12-15T14:25:53Z</time>
      </trkpt>
      <trkpt lat="44.74122" lon="4.91532">
        <ele>151.06</ele>
        <time>2015-12-15T14:25:54Z</time>
      </trkpt>
      <trkpt lat="44.74121" lon="4.91536">
        <ele>151.06</ele>
        <time>2015-12-15T14:25:55Z</time>
      </trkpt>
      <trkpt lat="44.74121" lon="4.9154">
        <ele>151.06</ele>
        <time>2015-12-15T14:25:56Z</time>
      </trkpt>
      <trkpt lat="44.74121" lon="4.91544">
        <ele>151.06</ele>
        <time>2015-12-15T14:25:57Z</time>
      </trkpt>
      <trkpt lat="44.74122" lon="4.91546">
        <ele>151.06</ele>
        <time>2015-12-15T14:25:58Z</time>
      </trkpt>
      <trkpt lat="44.74123" lon="4.91549">
        <ele>151.06</ele>
        <time>2015-12-15T14:25:59Z</time>
      </trkpt>
      <trkpt lat="44.74131" lon="4.91562">
        <ele>152.99</ele>
        <time>2015-12-15T14:26:10Z</time>
      </trkpt>
      <trkpt lat="44.74131" lon="4.91568">
        <ele>153.47</ele>
        <time>2015-12-15T14:26:13Z</time>
      </trkpt>
      <trkpt lat="44.74131" lon="4.9157">
        <ele>153.47</ele>
        <time>2015-12-15T14:26:14Z</time>
      </trkpt>
      <trkpt lat="44.74132" lon="4.91592">
        <ele>153.95</ele>
        <time>2015-12-15T14:26:26Z</time>
      </trkpt>
      <trkpt lat="44.74133" lon="4.91598">
        <ele>153.95</ele>
        <time>2015-12-15T14:26:30Z</time>
      </trkpt>
      <trkpt lat="44.74135" lon="4.916">
        <ele>152.99</ele>
        <time>2015-12-15T14:26:31Z</time>
      </trkpt>
      <trkpt lat="44.74138" lon="4.91601">
        <ele>152.99</ele>
        <time>2015-12-15T14:26:32Z</time>
      </trkpt>
      <trkpt lat="44.7414" lon="4.91601">
        <ele>152.99</ele>
        <time>2015-12-15T14:26:33Z</time>
      </trkpt>
      <trkpt lat="44.74143" lon="4.916">
        <ele>152.51</ele>
        <time>2015-12-15T14:26:34Z</time>
      </trkpt>
      <trkpt lat="44.74147" lon="4.91599">
        <ele>152.99</ele>
        <time>2015-12-15T14:26:35Z</time>
      </trkpt>
      <trkpt lat="44.7415" lon="4.91599">
        <ele>152.99</ele>
        <time>2015-12-15T14:26:36Z</time>
      </trkpt>
      <trkpt lat="44.74154" lon="4.91599">
        <ele>152.51</ele>
        <time>2015-12-15T14:26:37Z</time>
      </trkpt>
      <trkpt lat="44.74157" lon="4.916">
        <ele>152.51</ele>
        <time>2015-12-15T14:26:38Z</time>
      </trkpt>
      <trkpt lat="44.7416" lon="4.91603">
        <ele>152.51</ele>
        <time>2015-12-15T14:26:39Z</time>
      </trkpt>
      <trkpt lat="44.7416" lon="4.91607">
        <ele>152.51</ele>
        <time>2015-12-15T14:26:40Z</time>
      </trkpt>
      <trkpt lat="44.7416" lon="4.91611">
        <ele>152.51</ele>
        <time>2015-12-15T14:26:41Z</time>
      </trkpt>
      <trkpt lat="44.7416" lon="4.91616">
        <ele>152.03</ele>
        <time>2015-12-15T14:26:42Z</time>
      </trkpt>
      <trkpt lat="44.7416" lon="4.91621">
        <ele>152.03</ele>
        <time>2015-12-15T14:26:43Z</time>
      </trkpt>
      <trkpt lat="44.74159" lon="4.91626">
        <ele>152.03</ele>
        <time>2015-12-15T14:26:44Z</time>
      </trkpt>
      <trkpt lat="44.74158" lon="4.91632">
        <ele>152.03</ele>
        <time>2015-12-15T14:26:45Z</time>
      </trkpt>
      <trkpt lat="44.74151" lon="4.91661">
        <ele>152.51</ele>
        <time>2015-12-15T14:26:50Z</time>
      </trkpt>
      <trkpt lat="44.74126" lon="4.91754">
        <ele>152.51</ele>
        <time>2015-12-15T14:27:06Z</time>
      </trkpt>
      <trkpt lat="44.74111" lon="4.91818">
        <ele>151.54</ele>
        <time>2015-12-15T14:27:20Z</time>
      </trkpt>
      <trkpt lat="44.74109" lon="4.91828">
        <ele>151.06</ele>
        <time>2015-12-15T14:27:33Z</time>
      </trkpt>
      <trkpt lat="44.74104" lon="4.91853">
        <ele>152.03</ele>
        <time>2015-12-15T14:27:47Z</time>
      </trkpt>
      <trkpt lat="44.74093" lon="4.91921">
        <ele>151.54</ele>
        <time>2015-12-15T14:28:00Z</time>
      </trkpt>
      <trkpt lat="44.74082" lon="4.92004">
        <ele>151.54</ele>
        <time>2015-12-15T14:28:15Z</time>
      </trkpt>
      <trkpt lat="44.74071" lon="4.92089">
        <ele>151.54</ele>
        <time>2015-12-15T14:28:31Z</time>
      </trkpt>
      <trkpt lat="44.74062" lon="4.92176">
        <ele>152.03</ele>
        <time>2015-12-15T14:28:47Z</time>
      </trkpt>
      <trkpt lat="44.74053" lon="4.92252">
        <ele>152.99</ele>
        <time>2015-12-15T14:29:02Z</time>
      </trkpt>
      <trkpt lat="44.74045" lon="4.92322">
        <ele>152.51</ele>
        <time>2015-12-15T14:29:16Z</time>
      </trkpt>
      <trkpt lat="44.74036" lon="4.92404">
        <ele>152.99</ele>
        <time>2015-12-15T14:29:33Z</time>
      </trkpt>
      <trkpt lat="44.74049" lon="4.9244">
        <ele>152.99</ele>
        <time>2015-12-15T14:29:44Z</time>
      </trkpt>
      <trkpt lat="44.74117" lon="4.92457">
        <ele>152.99</ele>
        <time>2015-12-15T14:30:03Z</time>
      </trkpt>
      <trkpt lat="44.7413" lon="4.92456">
        <ele>152.99</ele>
        <time>2015-12-15T14:30:06Z</time>
      </trkpt>
      <trkpt lat="44.74135" lon="4.92456">
        <ele>153.47</ele>
        <time>2015-12-15T14:30:07Z</time>
      </trkpt>
      <trkpt lat="44.74167" lon="4.92456">
        <ele>153.47</ele>
        <time>2015-12-15T14:30:14Z</time>
      </trkpt>
      <trkpt lat="44.74215" lon="4.92459">
        <ele>153.47</ele>
        <time>2015-12-15T14:30:24Z</time>
      </trkpt>
      <trkpt lat="44.74219" lon="4.9246">
        <ele>153.47</ele>
        <time>2015-12-15T14:30:25Z</time>
      </trkpt>
      <trkpt lat="44.74224" lon="4.92461">
        <ele>153.47</ele>
        <time>2015-12-15T14:30:26Z</time>
      </trkpt>
      <trkpt lat="44.7431" lon="4.92505">
        <ele>153.47</ele>
        <time>2015-12-15T14:30:45Z</time>
      </trkpt>
      <trkpt lat="44.74393" lon="4.92542">
        <ele>153.47</ele>
        <time>2015-12-15T14:31:02Z</time>
      </trkpt>
      <trkpt lat="44.74504" lon="4.92598">
        <ele>154.43</ele>
        <time>2015-12-15T14:31:24Z</time>
      </trkpt>
      <trkpt lat="44.74535" lon="4.92611">
        <ele>154.91</ele>
        <time>2015-12-15T14:31:33Z</time>
      </trkpt>
      <trkpt lat="44.74538" lon="4.9261">
        <ele>154.91</ele>
        <time>2015-12-15T14:31:34Z</time>
      </trkpt>
      <trkpt lat="44.7454" lon="4.92608">
        <ele>155.87</ele>
        <time>2015-12-15T14:31:35Z</time>
      </trkpt>
      <trkpt lat="44.74542" lon="4.92604">
        <ele>155.39</ele>
        <time>2015-12-15T14:31:36Z</time>
      </trkpt>
      <trkpt lat="44.74543" lon="4.926">
        <ele>155.39</ele>
        <time>2015-12-15T14:31:37Z</time>
      </trkpt>
      <trkpt lat="44.74544" lon="4.92596">
        <ele>155.39</ele>
        <time>2015-12-15T14:31:38Z</time>
      </trkpt>
      <trkpt lat="44.74545" lon="4.92592">
        <ele>155.39</ele>
        <time>2015-12-15T14:31:39Z</time>
      </trkpt>
      <trkpt lat="44.74546" lon="4.92587">
        <ele>155.87</ele>
        <time>2015-12-15T14:31:40Z</time>
      </trkpt>
      <trkpt lat="44.74566" lon="4.92506">
        <ele>155.39</ele>
        <time>2015-12-15T14:31:56Z</time>
      </trkpt>
      <trkpt lat="44.74586" lon="4.92429">
        <ele>155.39</ele>
        <time>2015-12-15T14:32:09Z</time>
      </trkpt>
      <trkpt lat="44.746" lon="4.92373">
        <ele>154.91</ele>
        <time>2015-12-15T14:32:18Z</time>
      </trkpt>
      <trkpt lat="44.74601" lon="4.92367">
        <ele>155.39</ele>
        <time>2015-12-15T14:32:19Z</time>
      </trkpt>
      <trkpt lat="44.74603" lon="4.9236">
        <ele>155.39</ele>
        <time>2015-12-15T14:32:20Z</time>
      </trkpt>
      <trkpt lat="44.74627" lon="4.92263">
        <ele>154.91</ele>
        <time>2015-12-15T14:32:36Z</time>
      </trkpt>
      <trkpt lat="44.74641" lon="4.9221">
        <ele>154.43</ele>
        <time>2015-12-15T14:32:45Z</time>
      </trkpt>
      <trkpt lat="44.74642" lon="4.92204">
        <ele>154.43</ele>
        <time>2015-12-15T14:32:46Z</time>
      </trkpt>
      <trkpt lat="44.74644" lon="4.92198">
        <ele>154.43</ele>
        <time>2015-12-15T14:32:47Z</time>
      </trkpt>
      <trkpt lat="44.74646" lon="4.92192">
        <ele>154.43</ele>
        <time>2015-12-15T14:32:48Z</time>
      </trkpt>
      <trkpt lat="44.74647" lon="4.92186">
        <ele>154.43</ele>
        <time>2015-12-15T14:32:49Z</time>
      </trkpt>
      <trkpt lat="44.74665" lon="4.92111">
        <ele>154.43</ele>
        <time>2015-12-15T14:33:03Z</time>
      </trkpt>
      <trkpt lat="44.7469" lon="4.92014">
        <ele>153.95</ele>
        <time>2015-12-15T14:33:19Z</time>
      </trkpt>
      <trkpt lat="44.74708" lon="4.91941">
        <ele>153.95</ele>
        <time>2015-12-15T14:33:32Z</time>
      </trkpt>
      <trkpt lat="44.74716" lon="4.91909">
        <ele>155.39</ele>
        <time>2015-12-15T14:33:40Z</time>
      </trkpt>
      <trkpt lat="44.74718" lon="4.91906">
        <ele>155.39</ele>
        <time>2015-12-15T14:33:41Z</time>
      </trkpt>
      <trkpt lat="44.74721" lon="4.91906">
        <ele>155.39</ele>
        <time>2015-12-15T14:33:42Z</time>
      </trkpt>
      <trkpt lat="44.74777" lon="4.91933">
        <ele>156.83</ele>
        <time>2015-12-15T14:34:02Z</time>
      </trkpt>
      <trkpt lat="44.74818" lon="4.91954">
        <ele>155.39</ele>
        <time>2015-12-15T14:34:16Z</time>
      </trkpt>
      <trkpt lat="44.74822" lon="4.91953">
        <ele>154.91</ele>
        <time>2015-12-15T14:34:22Z</time>
      </trkpt>
      <trkpt lat="44.74824" lon="4.9195">
        <ele>154.91</ele>
        <time>2015-12-15T14:34:26Z</time>
      </trkpt>
      <trkpt lat="44.74825" lon="4.91948">
        <ele>154.91</ele>
        <time>2015-12-15T14:34:27Z</time>
      </trkpt>
      <trkpt lat="44.74826" lon="4.91946">
        <ele>153.95</ele>
        <time>2015-12-15T14:34:28Z</time>
      </trkpt>
      <trkpt lat="44.74827" lon="4.91943">
        <ele>153.95</ele>
        <time>2015-12-15T14:34:29Z</time>
      </trkpt>
      <trkpt lat="44.74828" lon="4.91941">
        <ele>153.47</ele>
        <time>2015-12-15T14:34:30Z</time>
      </trkpt>
      <trkpt lat="44.74829" lon="4.91938">
        <ele>153.47</ele>
        <time>2015-12-15T14:34:31Z</time>
      </trkpt>
      <trkpt lat="44.74833" lon="4.91929">
        <ele>151.54</ele>
        <time>2015-12-15T14:34:34Z</time>
      </trkpt>
      <trkpt lat="44.7484" lon="4.91911">
        <ele>149.14</ele>
        <time>2015-12-15T14:34:44Z</time>
      </trkpt>
      <trkpt lat="44.74845" lon="4.91877">
        <ele>149.62</ele>
        <time>2015-12-15T14:34:53Z</time>
      </trkpt>
      <trkpt lat="44.74845" lon="4.91871">
        <ele>149.62</ele>
        <time>2015-12-15T14:34:54Z</time>
      </trkpt>
      <trkpt lat="44.74844" lon="4.91851">
        <ele>151.06</ele>
        <time>2015-12-15T14:34:58Z</time>
      </trkpt>
      <trkpt lat="44.74861" lon="4.91785">
        <ele>152.03</ele>
        <time>2015-12-15T14:35:12Z</time>
      </trkpt>
      <trkpt lat="44.74881" lon="4.91703">
        <ele>151.54</ele>
        <time>2015-12-15T14:35:27Z</time>
      </trkpt>
      <trkpt lat="44.74895" lon="4.91654">
        <ele>151.06</ele>
        <time>2015-12-15T14:35:36Z</time>
      </trkpt>
      <trkpt lat="44.74907" lon="4.916">
        <ele>151.06</ele>
        <time>2015-12-15T14:35:47Z</time>
      </trkpt>
      <trkpt lat="44.74926" lon="4.91527">
        <ele>150.58</ele>
        <time>2015-12-15T14:36:00Z</time>
      </trkpt>
      <trkpt lat="44.74942" lon="4.91461">
        <ele>150.1</ele>
        <time>2015-12-15T14:36:13Z</time>
      </trkpt>
      <trkpt lat="44.74961" lon="4.91387">
        <ele>150.1</ele>
        <time>2015-12-15T14:36:27Z</time>
      </trkpt>
      <trkpt lat="44.74982" lon="4.91307">
        <ele>149.62</ele>
        <time>2015-12-15T14:36:41Z</time>
      </trkpt>
      <trkpt lat="44.74995" lon="4.91254">
        <ele>149.62</ele>
        <time>2015-12-15T14:36:52Z</time>
      </trkpt>
      <trkpt lat="44.7501" lon="4.91206">
        <ele>148.66</ele>
        <time>2015-12-15T14:37:03Z</time>
      </trkpt>
      <trkpt lat="44.75022" lon="4.91162">
        <ele>148.18</ele>
        <time>2015-12-15T14:37:15Z</time>
      </trkpt>
      <trkpt lat="44.75025" lon="4.91137">
        <ele>147.22</ele>
        <time>2015-12-15T14:37:25Z</time>
      </trkpt>
      <trkpt lat="44.75029" lon="4.91133">
        <ele>148.18</ele>
        <time>2015-12-15T14:37:39Z</time>
      </trkpt>
      <trkpt lat="44.7503" lon="4.91132">
        <ele>147.7</ele>
        <time>2015-12-15T14:38:08Z</time>
      </trkpt>
      <trkpt lat="44.75034" lon="4.91104">
        <ele>147.22</ele>
        <time>2015-12-15T14:38:18Z</time>
      </trkpt>
      <trkpt lat="44.75049" lon="4.91054">
        <ele>148.18</ele>
        <time>2015-12-15T14:38:30Z</time>
      </trkpt>
      <trkpt lat="44.75065" lon="4.90984">
        <ele>148.66</ele>
        <time>2015-12-15T14:38:44Z</time>
      </trkpt>
      <trkpt lat="44.75086" lon="4.90907">
        <ele>148.18</ele>
        <time>2015-12-15T14:38:58Z</time>
      </trkpt>
      <trkpt lat="44.751" lon="4.90848">
        <ele>147.7</ele>
        <time>2015-12-15T14:39:10Z</time>
      </trkpt>
      <trkpt lat="44.75117" lon="4.90783">
        <ele>147.7</ele>
        <time>2015-12-15T14:39:23Z</time>
      </trkpt>
      <trkpt lat="44.75133" lon="4.90721">
        <ele>147.22</ele>
        <time>2015-12-15T14:39:36Z</time>
      </trkpt>
      <trkpt lat="44.75149" lon="4.9066">
        <ele>147.22</ele>
        <time>2015-12-15T14:39:48Z</time>
      </trkpt>
      <trkpt lat="44.75167" lon="4.90586">
        <ele>146.74</ele>
        <time>2015-12-15T14:40:02Z</time>
      </trkpt>
      <trkpt lat="44.75183" lon="4.90522">
        <ele>146.74</ele>
        <time>2015-12-15T14:40:14Z</time>
      </trkpt>
      <trkpt lat="44.75203" lon="4.90452">
        <ele>146.26</ele>
        <time>2015-12-15T14:40:27Z</time>
      </trkpt>
      <trkpt lat="44.75205" lon="4.90446">
        <ele>146.74</ele>
        <time>2015-12-15T14:40:28Z</time>
      </trkpt>
      <trkpt lat="44.75215" lon="4.90401">
        <ele>146.26</ele>
        <time>2015-12-15T14:40:36Z</time>
      </trkpt>
      <trkpt lat="44.75216" lon="4.90395">
        <ele>145.78</ele>
        <time>2015-12-15T14:40:37Z</time>
      </trkpt>
      <trkpt lat="44.75235" lon="4.90321">
        <ele>145.3</ele>
        <time>2015-12-15T14:40:50Z</time>
      </trkpt>
      <trkpt lat="44.75253" lon="4.9025">
        <ele>144.82</ele>
        <time>2015-12-15T14:41:04Z</time>
      </trkpt>
      <trkpt lat="44.75268" lon="4.90191">
        <ele>144.82</ele>
        <time>2015-12-15T14:41:16Z</time>
      </trkpt>
      <trkpt lat="44.75288" lon="4.90117">
        <ele>144.34</ele>
        <time>2015-12-15T14:41:30Z</time>
      </trkpt>
      <trkpt lat="44.75302" lon="4.90056">
        <ele>144.34</ele>
        <time>2015-12-15T14:41:42Z</time>
      </trkpt>
      <trkpt lat="44.75316" lon="4.90002">
        <ele>144.34</ele>
        <time>2015-12-15T14:41:53Z</time>
      </trkpt>
      <trkpt lat="44.75324" lon="4.89974">
        <ele>143.85</ele>
        <time>2015-12-15T14:41:59Z</time>
      </trkpt>
      <trkpt lat="44.75325" lon="4.89971">
        <ele>143.85</ele>
        <time>2015-12-15T14:42:00Z</time>
      </trkpt>
      <trkpt lat="44.75326" lon="4.89967">
        <ele>143.85</ele>
        <time>2015-12-15T14:42:01Z</time>
      </trkpt>
      <trkpt lat="44.75341" lon="4.89905">
        <ele>143.37</ele>
        <time>2015-12-15T14:42:15Z</time>
      </trkpt>
      <trkpt lat="44.75352" lon="4.89855">
        <ele>143.37</ele>
        <time>2015-12-15T14:42:27Z</time>
      </trkpt>
      <trkpt lat="44.75363" lon="4.89814">
        <ele>142.89</ele>
        <time>2015-12-15T14:42:38Z</time>
      </trkpt>
      <trkpt lat="44.75371" lon="4.89776">
        <ele>143.37</ele>
        <time>2015-12-15T14:42:48Z</time>
      </trkpt>
      <trkpt lat="44.75386" lon="4.89719">
        <ele>142.89</ele>
        <time>2015-12-15T14:43:01Z</time>
      </trkpt>
      <trkpt lat="44.754" lon="4.89664">
        <ele>142.41</ele>
        <time>2015-12-15T14:43:12Z</time>
      </trkpt>
      <trkpt lat="44.7541" lon="4.89621">
        <ele>142.41</ele>
        <time>2015-12-15T14:43:20Z</time>
      </trkpt>
      <trkpt lat="44.75426" lon="4.89564">
        <ele>142.89</ele>
        <time>2015-12-15T14:43:32Z</time>
      </trkpt>
      <trkpt lat="44.7544" lon="4.89506">
        <ele>142.41</ele>
        <time>2015-12-15T14:43:45Z</time>
      </trkpt>
      <trkpt lat="44.75452" lon="4.89462">
        <ele>141.93</ele>
        <time>2015-12-15T14:43:55Z</time>
      </trkpt>
      <trkpt lat="44.75466" lon="4.89402">
        <ele>141.45</ele>
        <time>2015-12-15T14:44:08Z</time>
      </trkpt>
      <trkpt lat="44.75479" lon="4.89364">
        <ele>141.45</ele>
        <time>2015-12-15T14:44:18Z</time>
      </trkpt>
      <trkpt lat="44.75493" lon="4.89301">
        <ele>141.45</ele>
        <time>2015-12-15T14:44:32Z</time>
      </trkpt>
      <trkpt lat="44.7551" lon="4.89241">
        <ele>140.97</ele>
        <time>2015-12-15T14:44:45Z</time>
      </trkpt>
      <trkpt lat="44.75523" lon="4.89182">
        <ele>140.49</ele>
        <time>2015-12-15T14:44:59Z</time>
      </trkpt>
      <trkpt lat="44.75543" lon="4.89102">
        <ele>140.49</ele>
        <time>2015-12-15T14:45:15Z</time>
      </trkpt>
      <trkpt lat="44.7556" lon="4.8903">
        <ele>140.01</ele>
        <time>2015-12-15T14:45:29Z</time>
      </trkpt>
      <trkpt lat="44.75576" lon="4.88971">
        <ele>139.53</ele>
        <time>2015-12-15T14:45:41Z</time>
      </trkpt>
      <trkpt lat="44.75595" lon="4.88897">
        <ele>139.05</ele>
        <time>2015-12-15T14:45:55Z</time>
      </trkpt>
      <trkpt lat="44.75614" lon="4.88819">
        <ele>139.05</ele>
        <time>2015-12-15T14:46:09Z</time>
      </trkpt>
      <trkpt lat="44.75631" lon="4.88777">
        <ele>138.57</ele>
        <time>2015-12-15T14:46:17Z</time>
      </trkpt>
      <trkpt lat="44.75658" lon="4.88753">
        <ele>139.05</ele>
        <time>2015-12-15T14:46:26Z</time>
      </trkpt>
      <trkpt lat="44.75684" lon="4.88715">
        <ele>138.57</ele>
        <time>2015-12-15T14:46:37Z</time>
      </trkpt>
      <trkpt lat="44.75715" lon="4.88669">
        <ele>137.61</ele>
        <time>2015-12-15T14:46:49Z</time>
      </trkpt>
      <trkpt lat="44.75746" lon="4.88616">
        <ele>137.61</ele>
        <time>2015-12-15T14:47:03Z</time>
      </trkpt>
      <trkpt lat="44.7578" lon="4.88561">
        <ele>137.13</ele>
        <time>2015-12-15T14:47:16Z</time>
      </trkpt>
      <trkpt lat="44.75818" lon="4.88498">
        <ele>136.64</ele>
        <time>2015-12-15T14:47:29Z</time>
      </trkpt>
      <trkpt lat="44.75842" lon="4.88438">
        <ele>136.16</ele>
        <time>2015-12-15T14:47:42Z</time>
      </trkpt>
      <trkpt lat="44.75848" lon="4.8836">
        <ele>135.68</ele>
        <time>2015-12-15T14:47:56Z</time>
      </trkpt>
      <trkpt lat="44.75848" lon="4.88343">
        <ele>135.2</ele>
        <time>2015-12-15T14:48:06Z</time>
      </trkpt>
      <trkpt lat="44.75849" lon="4.88342">
        <ele>134.72</ele>
        <time>2015-12-15T14:48:26Z</time>
      </trkpt>
      <trkpt lat="44.75852" lon="4.88339">
        <ele>134.72</ele>
        <time>2015-12-15T14:48:51Z</time>
      </trkpt>
      <trkpt lat="44.7585" lon="4.88338">
        <ele>134.72</ele>
        <time>2015-12-15T14:49:22Z</time>
      </trkpt>
      <trkpt lat="44.75849" lon="4.88342">
        <ele>135.2</ele>
        <time>2015-12-15T14:49:42Z</time>
      </trkpt>
      <trkpt lat="44.75848" lon="4.88338">
        <ele>135.68</ele>
        <time>2015-12-15T14:49:45Z</time>
      </trkpt>
      <trkpt lat="44.75847" lon="4.88337">
        <ele>135.68</ele>
        <time>2015-12-15T14:49:46Z</time>
      </trkpt>
      <trkpt lat="44.75847" lon="4.88334">
        <ele>135.2</ele>
        <time>2015-12-15T14:49:47Z</time>
      </trkpt>
      <trkpt lat="44.75847" lon="4.88331">
        <ele>135.68</ele>
        <time>2015-12-15T14:49:48Z</time>
      </trkpt>
      <trkpt lat="44.75847" lon="4.88327">
        <ele>135.68</ele>
        <time>2015-12-15T14:49:49Z</time>
      </trkpt>
      <trkpt lat="44.75849" lon="4.88276">
        <ele>134.72</ele>
        <time>2015-12-15T14:50:02Z</time>
      </trkpt>
      <trkpt lat="44.75857" lon="4.88224">
        <ele>134.72</ele>
        <time>2015-12-15T14:50:14Z</time>
      </trkpt>
      <trkpt lat="44.7588" lon="4.88175">
        <ele>134.72</ele>
        <time>2015-12-15T14:50:24Z</time>
      </trkpt>
      <trkpt lat="44.75905" lon="4.88125">
        <ele>134.72</ele>
        <time>2015-12-15T14:50:36Z</time>
      </trkpt>
      <trkpt lat="44.75926" lon="4.88076">
        <ele>134.24</ele>
        <time>2015-12-15T14:50:47Z</time>
      </trkpt>
      <trkpt lat="44.75955" lon="4.88015">
        <ele>133.28</ele>
        <time>2015-12-15T14:51:00Z</time>
      </trkpt>
      <trkpt lat="44.75992" lon="4.87965">
        <ele>133.76</ele>
        <time>2015-12-15T14:51:12Z</time>
      </trkpt>
      <trkpt lat="44.7601" lon="4.87942">
        <ele>133.28</ele>
        <time>2015-12-15T14:51:23Z</time>
      </trkpt>
      <trkpt lat="44.76012" lon="4.87938">
        <ele>133.28</ele>
        <time>2015-12-15T14:51:25Z</time>
      </trkpt>
      <trkpt lat="44.76015" lon="4.87923">
        <ele>132.8</ele>
        <time>2015-12-15T14:51:32Z</time>
      </trkpt>
      <trkpt lat="44.76023" lon="4.8791">
        <ele>132.8</ele>
        <time>2015-12-15T14:51:37Z</time>
      </trkpt>
      <trkpt lat="44.76027" lon="4.87897">
        <ele>132.8</ele>
        <time>2015-12-15T14:51:42Z</time>
      </trkpt>
      <trkpt lat="44.7603" lon="4.87888">
        <ele>132.8</ele>
        <time>2015-12-15T14:51:45Z</time>
      </trkpt>
      <trkpt lat="44.76028" lon="4.87876">
        <ele>132.8</ele>
        <time>2015-12-15T14:51:49Z</time>
      </trkpt>
      <trkpt lat="44.76028" lon="4.87869">
        <ele>132.32</ele>
        <time>2015-12-15T14:51:52Z</time>
      </trkpt>
      <trkpt lat="44.76036" lon="4.87857">
        <ele>132.8</ele>
        <time>2015-12-15T14:51:58Z</time>
      </trkpt>
      <trkpt lat="44.76039" lon="4.87834">
        <ele>132.8</ele>
        <time>2015-12-15T14:52:04Z</time>
      </trkpt>
      <trkpt lat="44.76033" lon="4.87824">
        <ele>132.8</ele>
        <time>2015-12-15T14:52:11Z</time>
      </trkpt>
      <trkpt lat="44.76043" lon="4.87788">
        <ele>132.32</ele>
        <time>2015-12-15T14:52:21Z</time>
      </trkpt>
      <trkpt lat="44.76065" lon="4.877">
        <ele>132.32</ele>
        <time>2015-12-15T14:52:33Z</time>
      </trkpt>
      <trkpt lat="44.76068" lon="4.87635">
        <ele>131.84</ele>
        <time>2015-12-15T14:52:44Z</time>
      </trkpt>
      <trkpt lat="44.76068" lon="4.87631">
        <ele>131.84</ele>
        <time>2015-12-15T14:52:45Z</time>
      </trkpt>
      <trkpt lat="44.76073" lon="4.87621">
        <ele>131.84</ele>
        <time>2015-12-15T14:52:49Z</time>
      </trkpt>
      <trkpt lat="44.76077" lon="4.87616">
        <ele>131.36</ele>
        <time>2015-12-15T14:52:52Z</time>
      </trkpt>
      <trkpt lat="44.76077" lon="4.8761">
        <ele>131.36</ele>
        <time>2015-12-15T14:52:54Z</time>
      </trkpt>
      <trkpt lat="44.76093" lon="4.87565">
        <ele>131.36</ele>
        <time>2015-12-15T14:53:05Z</time>
      </trkpt>
      <trkpt lat="44.761" lon="4.87528">
        <ele>131.36</ele>
        <time>2015-12-15T14:53:13Z</time>
      </trkpt>
      <trkpt lat="44.76102" lon="4.87494">
        <ele>130.88</ele>
        <time>2015-12-15T14:53:25Z</time>
      </trkpt>
      <trkpt lat="44.76103" lon="4.87478">
        <ele>130.88</ele>
        <time>2015-12-15T14:53:32Z</time>
      </trkpt>
      <trkpt lat="44.76097" lon="4.87458">
        <ele>130.88</ele>
        <time>2015-12-15T14:53:38Z</time>
      </trkpt>
      <trkpt lat="44.76078" lon="4.87417">
        <ele>130.88</ele>
        <time>2015-12-15T14:53:50Z</time>
      </trkpt>
      <trkpt lat="44.76071" lon="4.87404">
        <ele>130.88</ele>
        <time>2015-12-15T14:53:54Z</time>
      </trkpt>
      <trkpt lat="44.76061" lon="4.87384">
        <ele>130.88</ele>
        <time>2015-12-15T14:54:01Z</time>
      </trkpt>
      <trkpt lat="44.76052" lon="4.87371">
        <ele>130.4</ele>
        <time>2015-12-15T14:54:07Z</time>
      </trkpt>
      <trkpt lat="44.76067" lon="4.87364">
        <ele>130.4</ele>
        <time>2015-12-15T14:54:17Z</time>
      </trkpt>
      <trkpt lat="44.76068" lon="4.87363">
        <ele>129.92</ele>
        <time>2015-12-15T14:54:18Z</time>
      </trkpt>
      <trkpt lat="44.76077" lon="4.87343">
        <ele>129.92</ele>
        <time>2015-12-15T14:54:26Z</time>
      </trkpt>
      <trkpt lat="44.76079" lon="4.87289">
        <ele>129.92</ele>
        <time>2015-12-15T14:54:38Z</time>
      </trkpt>
      <trkpt lat="44.76085" lon="4.87277">
        <ele>129.92</ele>
        <time>2015-12-15T14:54:42Z</time>
      </trkpt>
      <trkpt lat="44.7609" lon="4.87246">
        <ele>129.43</ele>
        <time>2015-12-15T14:54:52Z</time>
      </trkpt>
      <trkpt lat="44.76089" lon="4.87243">
        <ele>129.43</ele>
        <time>2015-12-15T14:54:53Z</time>
      </trkpt>
      <trkpt lat="44.76086" lon="4.87241">
        <ele>129.43</ele>
        <time>2015-12-15T14:54:54Z</time>
      </trkpt>
      <trkpt lat="44.76084" lon="4.8724">
        <ele>129.43</ele>
        <time>2015-12-15T14:54:55Z</time>
      </trkpt>
      <trkpt lat="44.76082" lon="4.87238">
        <ele>128.95</ele>
        <time>2015-12-15T14:54:56Z</time>
      </trkpt>
      <trkpt lat="44.7608" lon="4.87236">
        <ele>128.95</ele>
        <time>2015-12-15T14:54:57Z</time>
      </trkpt>
      <trkpt lat="44.76048" lon="4.87203">
        <ele>129.43</ele>
        <time>2015-12-15T14:55:08Z</time>
      </trkpt>
      <trkpt lat="44.76047" lon="4.87199">
        <ele>129.43</ele>
        <time>2015-12-15T14:55:09Z</time>
      </trkpt>
      <trkpt lat="44.76045" lon="4.87192">
        <ele>129.43</ele>
        <time>2015-12-15T14:55:11Z</time>
      </trkpt>
      <trkpt lat="44.76044" lon="4.87189">
        <ele>128.95</ele>
        <time>2015-12-15T14:55:12Z</time>
      </trkpt>
      <trkpt lat="44.76042" lon="4.87187">
        <ele>128.95</ele>
        <time>2015-12-15T14:55:13Z</time>
      </trkpt>
      <trkpt lat="44.7604" lon="4.87184">
        <ele>128.47</ele>
        <time>2015-12-15T14:55:14Z</time>
      </trkpt>
      <trkpt lat="44.7604" lon="4.87181">
        <ele>128.47</ele>
        <time>2015-12-15T14:55:15Z</time>
      </trkpt>
      <trkpt lat="44.7604" lon="4.87178">
        <ele>127.99</ele>
        <time>2015-12-15T14:55:16Z</time>
      </trkpt>
      <trkpt lat="44.76041" lon="4.87174">
        <ele>127.99</ele>
        <time>2015-12-15T14:55:17Z</time>
      </trkpt>
      <trkpt lat="44.76043" lon="4.87171">
        <ele>127.99</ele>
        <time>2015-12-15T14:55:18Z</time>
      </trkpt>
      <trkpt lat="44.76068" lon="4.87139">
        <ele>127.99</ele>
        <time>2015-12-15T14:55:28Z</time>
      </trkpt>
      <trkpt lat="44.7609" lon="4.87114">
        <ele>127.51</ele>
        <time>2015-12-15T14:55:36Z</time>
      </trkpt>
      <trkpt lat="44.76091" lon="4.87094">
        <ele>127.51</ele>
        <time>2015-12-15T14:55:42Z</time>
      </trkpt>
      <trkpt lat="44.76092" lon="4.87049">
        <ele>127.99</ele>
        <time>2015-12-15T14:55:53Z</time>
      </trkpt>
      <trkpt lat="44.76066" lon="4.87033">
        <ele>128.47</ele>
        <time>2015-12-15T14:56:06Z</time>
      </trkpt>
      <trkpt lat="44.76064" lon="4.87032">
        <ele>127.99</ele>
        <time>2015-12-15T14:56:07Z</time>
      </trkpt>
      <trkpt lat="44.76054" lon="4.87019">
        <ele>128.95</ele>
        <time>2015-12-15T14:56:17Z</time>
      </trkpt>
      <trkpt lat="44.76055" lon="4.87015">
        <ele>128.47</ele>
        <time>2015-12-15T14:56:18Z</time>
      </trkpt>
      <trkpt lat="44.76057" lon="4.86999">
        <ele>128.47</ele>
        <time>2015-12-15T14:56:22Z</time>
      </trkpt>
      <trkpt lat="44.76052" lon="4.8699">
        <ele>128.47</ele>
        <time>2015-12-15T14:56:26Z</time>
      </trkpt>
      <trkpt lat="44.76044" lon="4.86977">
        <ele>127.99</ele>
        <time>2015-12-15T14:56:32Z</time>
      </trkpt>
      <trkpt lat="44.76046" lon="4.86966">
        <ele>128.47</ele>
        <time>2015-12-15T14:56:35Z</time>
      </trkpt>
      <trkpt lat="44.76062" lon="4.86903">
        <ele>127.99</ele>
        <time>2015-12-15T14:56:49Z</time>
      </trkpt>
      <trkpt lat="44.76088" lon="4.86823">
        <ele>127.51</ele>
        <time>2015-12-15T14:57:02Z</time>
      </trkpt>
      <trkpt lat="44.7612" lon="4.86746">
        <ele>126.55</ele>
        <time>2015-12-15T14:57:15Z</time>
      </trkpt>
      <trkpt lat="44.76124" lon="4.86735">
        <ele>126.07</ele>
        <time>2015-12-15T14:57:17Z</time>
      </trkpt>
      <trkpt lat="44.76135" lon="4.86713">
        <ele>126.07</ele>
        <time>2015-12-15T14:57:21Z</time>
      </trkpt>
      <trkpt lat="44.76166" lon="4.86655">
        <ele>126.55</ele>
        <time>2015-12-15T14:57:34Z</time>
      </trkpt>
      <trkpt lat="44.7619" lon="4.86576">
        <ele>126.07</ele>
        <time>2015-12-15T14:57:50Z</time>
      </trkpt>
      <trkpt lat="44.76196" lon="4.86499">
        <ele>125.59</ele>
        <time>2015-12-15T14:58:05Z</time>
      </trkpt>
      <trkpt lat="44.76186" lon="4.86442">
        <ele>125.11</ele>
        <time>2015-12-15T14:58:17Z</time>
      </trkpt>
      <trkpt lat="44.76178" lon="4.86391">
        <ele>125.59</ele>
        <time>2015-12-15T14:58:30Z</time>
      </trkpt>
      <trkpt lat="44.7618" lon="4.86329">
        <ele>125.11</ele>
        <time>2015-12-15T14:58:42Z</time>
      </trkpt>
      <trkpt lat="44.76185" lon="4.8626">
        <ele>124.63</ele>
        <time>2015-12-15T14:58:56Z</time>
      </trkpt>
      <trkpt lat="44.76192" lon="4.86187">
        <ele>124.63</ele>
        <time>2015-12-15T14:59:10Z</time>
      </trkpt>
      <trkpt lat="44.76192" lon="4.86116">
        <ele>124.15</ele>
        <time>2015-12-15T14:59:24Z</time>
      </trkpt>
      <trkpt lat="44.76198" lon="4.86111">
        <ele>123.67</ele>
        <time>2015-12-15T14:59:26Z</time>
      </trkpt>
      <trkpt lat="44.76249" lon="4.86118">
        <ele>123.67</ele>
        <time>2015-12-15T14:59:41Z</time>
      </trkpt>
      <trkpt lat="44.76274" lon="4.86116">
        <ele>124.63</ele>
        <time>2015-12-15T14:59:52Z</time>
      </trkpt>
      <trkpt lat="44.76271" lon="4.86094">
        <ele>126.07</ele>
        <time>2015-12-15T15:00:02Z</time>
      </trkpt>
      <trkpt lat="44.76252" lon="4.86057">
        <ele>125.11</ele>
        <time>2015-12-15T15:00:15Z</time>
      </trkpt>
      <trkpt lat="44.76246" lon="4.86036">
        <ele>125.59</ele>
        <time>2015-12-15T15:00:23Z</time>
      </trkpt>
      <trkpt lat="44.76239" lon="4.86017">
        <ele>125.59</ele>
        <time>2015-12-15T15:00:30Z</time>
      </trkpt>
      <trkpt lat="44.76238" lon="4.86008">
        <ele>125.11</ele>
        <time>2015-12-15T15:00:33Z</time>
      </trkpt>
      <trkpt lat="44.76225" lon="4.85958">
        <ele>124.15</ele>
        <time>2015-12-15T15:00:45Z</time>
      </trkpt>
      <trkpt lat="44.76223" lon="4.85895">
        <ele>124.15</ele>
        <time>2015-12-15T15:00:56Z</time>
      </trkpt>
      <trkpt lat="44.76221" lon="4.85849">
        <ele>122.71</ele>
        <time>2015-12-15T15:01:05Z</time>
      </trkpt>
      <trkpt lat="44.76222" lon="4.85813">
        <ele>123.67</ele>
        <time>2015-12-15T15:01:15Z</time>
      </trkpt>
      <trkpt lat="44.76223" lon="4.8581">
        <ele>123.67</ele>
        <time>2015-12-15T15:01:17Z</time>
      </trkpt>
      <trkpt lat="44.76226" lon="4.85805">
        <ele>124.63</ele>
        <time>2015-12-15T15:01:26Z</time>
      </trkpt>
      <trkpt lat="44.76221" lon="4.85771">
        <ele>124.63</ele>
        <time>2015-12-15T15:01:37Z</time>
      </trkpt>
      <trkpt lat="44.76214" lon="4.85707">
        <ele>124.63</ele>
        <time>2015-12-15T15:01:49Z</time>
      </trkpt>
      <trkpt lat="44.76198" lon="4.8562">
        <ele>124.15</ele>
        <time>2015-12-15T15:02:04Z</time>
      </trkpt>
      <trkpt lat="44.76191" lon="4.85557">
        <ele>123.67</ele>
        <time>2015-12-15T15:02:16Z</time>
      </trkpt>
      <trkpt lat="44.76183" lon="4.85476">
        <ele>124.15</ele>
        <time>2015-12-15T15:02:31Z</time>
      </trkpt>
      <trkpt lat="44.76183" lon="4.8547">
        <ele>124.15</ele>
        <time>2015-12-15T15:02:32Z</time>
      </trkpt>
      <trkpt lat="44.76178" lon="4.85415">
        <ele>124.15</ele>
        <time>2015-12-15T15:02:41Z</time>
      </trkpt>
      <trkpt lat="44.76172" lon="4.8532">
        <ele>123.19</ele>
        <time>2015-12-15T15:02:57Z</time>
      </trkpt>
      <trkpt lat="44.76185" lon="4.85245">
        <ele>122.71</ele>
        <time>2015-12-15T15:03:12Z</time>
      </trkpt>
      <trkpt lat="44.762" lon="4.8516">
        <ele>122.71</ele>
        <time>2015-12-15T15:03:27Z</time>
      </trkpt>
      <trkpt lat="44.76201" lon="4.85154">
        <ele>122.71</ele>
        <time>2015-12-15T15:03:28Z</time>
      </trkpt>
      <trkpt lat="44.76199" lon="4.85126">
        <ele>121.26</ele>
        <time>2015-12-15T15:03:32Z</time>
      </trkpt>
      <trkpt lat="44.76194" lon="4.85112">
        <ele>120.3</ele>
        <time>2015-12-15T15:03:34Z</time>
      </trkpt>
      <trkpt lat="44.76195" lon="4.8508">
        <ele>120.3</ele>
        <time>2015-12-15T15:03:39Z</time>
      </trkpt>
      <trkpt lat="44.76198" lon="4.85024">
        <ele>120.3</ele>
        <time>2015-12-15T15:03:47Z</time>
      </trkpt>
      <trkpt lat="44.76202" lon="4.84981">
        <ele>120.3</ele>
        <time>2015-12-15T15:03:53Z</time>
      </trkpt>
      <trkpt lat="44.76206" lon="4.8496">
        <ele>120.3</ele>
        <time>2015-12-15T15:03:56Z</time>
      </trkpt>
      <trkpt lat="44.76208" lon="4.84953">
        <ele>120.3</ele>
        <time>2015-12-15T15:03:57Z</time>
      </trkpt>
      <trkpt lat="44.76221" lon="4.84918">
        <ele>120.3</ele>
        <time>2015-12-15T15:04:03Z</time>
      </trkpt>
      <trkpt lat="44.76222" lon="4.84912">
        <ele>119.82</ele>
        <time>2015-12-15T15:04:04Z</time>
      </trkpt>
      <trkpt lat="44.76222" lon="4.84906">
        <ele>119.82</ele>
        <time>2015-12-15T15:04:05Z</time>
      </trkpt>
      <trkpt lat="44.76223" lon="4.84901">
        <ele>119.34</ele>
        <time>2015-12-15T15:04:06Z</time>
      </trkpt>
      <trkpt lat="44.76226" lon="4.84898">
        <ele>119.34</ele>
        <time>2015-12-15T15:04:07Z</time>
      </trkpt>
      <trkpt lat="44.76228" lon="4.84895">
        <ele>119.34</ele>
        <time>2015-12-15T15:04:08Z</time>
      </trkpt>
      <trkpt lat="44.7623" lon="4.84891">
        <ele>119.82</ele>
        <time>2015-12-15T15:04:09Z</time>
      </trkpt>
      <trkpt lat="44.76231" lon="4.84887">
        <ele>119.34</ele>
        <time>2015-12-15T15:04:10Z</time>
      </trkpt>
      <trkpt lat="44.76232" lon="4.84883">
        <ele>119.34</ele>
        <time>2015-12-15T15:04:11Z</time>
      </trkpt>
      <trkpt lat="44.76249" lon="4.84838">
        <ele>119.34</ele>
        <time>2015-12-15T15:04:20Z</time>
      </trkpt>
      <trkpt lat="44.76254" lon="4.84824">
        <ele>119.34</ele>
        <time>2015-12-15T15:04:23Z</time>
      </trkpt>
      <trkpt lat="44.76254" lon="4.84819">
        <ele>118.86</ele>
        <time>2015-12-15T15:04:24Z</time>
      </trkpt>
      <trkpt lat="44.76253" lon="4.84815">
        <ele>119.34</ele>
        <time>2015-12-15T15:04:25Z</time>
      </trkpt>
      <trkpt lat="44.76253" lon="4.8481">
        <ele>118.86</ele>
        <time>2015-12-15T15:04:26Z</time>
      </trkpt>
      <trkpt lat="44.76253" lon="4.84804">
        <ele>119.34</ele>
        <time>2015-12-15T15:04:27Z</time>
      </trkpt>
      <trkpt lat="44.76254" lon="4.848">
        <ele>118.86</ele>
        <time>2015-12-15T15:04:28Z</time>
      </trkpt>
      <trkpt lat="44.76256" lon="4.84795">
        <ele>118.86</ele>
        <time>2015-12-15T15:04:29Z</time>
      </trkpt>
      <trkpt lat="44.76258" lon="4.8479">
        <ele>118.86</ele>
        <time>2015-12-15T15:04:30Z</time>
      </trkpt>
      <trkpt lat="44.7628" lon="4.84729">
        <ele>118.38</ele>
        <time>2015-12-15T15:04:42Z</time>
      </trkpt>
      <trkpt lat="44.76315" lon="4.84686">
        <ele>118.38</ele>
        <time>2015-12-15T15:04:54Z</time>
      </trkpt>
      <trkpt lat="44.76352" lon="4.8465">
        <ele>119.82</ele>
        <time>2015-12-15T15:05:06Z</time>
      </trkpt>
      <trkpt lat="44.76388" lon="4.84602">
        <ele>118.86</ele>
        <time>2015-12-15T15:05:21Z</time>
      </trkpt>
      <trkpt lat="44.76419" lon="4.8459">
        <ele>118.86</ele>
        <time>2015-12-15T15:05:32Z</time>
      </trkpt>
      <trkpt lat="44.76458" lon="4.84555">
        <ele>117.9</ele>
        <time>2015-12-15T15:05:44Z</time>
      </trkpt>
      <trkpt lat="44.76491" lon="4.84506">
        <ele>118.38</ele>
        <time>2015-12-15T15:05:58Z</time>
      </trkpt>
      <trkpt lat="44.76523" lon="4.84495">
        <ele>117.42</ele>
        <time>2015-12-15T15:06:09Z</time>
      </trkpt>
      <trkpt lat="44.76543" lon="4.84489">
        <ele>117.9</ele>
        <time>2015-12-15T15:06:16Z</time>
      </trkpt>
      <trkpt lat="44.7655" lon="4.84434">
        <ele>116.94</ele>
        <time>2015-12-15T15:06:30Z</time>
      </trkpt>
      <trkpt lat="44.76557" lon="4.84422">
        <ele>117.42</ele>
        <time>2015-12-15T15:06:36Z</time>
      </trkpt>
      <trkpt lat="44.76566" lon="4.84403">
        <ele>117.9</ele>
        <time>2015-12-15T15:06:41Z</time>
      </trkpt>
      <trkpt lat="44.76575" lon="4.84364">
        <ele>117.9</ele>
        <time>2015-12-15T15:06:51Z</time>
      </trkpt>
      <trkpt lat="44.76588" lon="4.84311">
        <ele>117.9</ele>
        <time>2015-12-15T15:07:04Z</time>
      </trkpt>
      <trkpt lat="44.76597" lon="4.84259">
        <ele>118.38</ele>
        <time>2015-12-15T15:07:16Z</time>
      </trkpt>
      <trkpt lat="44.76597" lon="4.84249">
        <ele>118.86</ele>
        <time>2015-12-15T15:07:19Z</time>
      </trkpt>
      <trkpt lat="44.76597" lon="4.84202">
        <ele>118.38</ele>
        <time>2015-12-15T15:07:32Z</time>
      </trkpt>
      <trkpt lat="44.766" lon="4.84153">
        <ele>118.38</ele>
        <time>2015-12-15T15:07:46Z</time>
      </trkpt>
      <trkpt lat="44.76603" lon="4.84111">
        <ele>118.86</ele>
        <time>2015-12-15T15:07:58Z</time>
      </trkpt>
      <trkpt lat="44.76604" lon="4.84083">
        <ele>119.82</ele>
        <time>2015-12-15T15:08:10Z</time>
      </trkpt>
      <trkpt lat="44.76605" lon="4.8407">
        <ele>120.3</ele>
        <time>2015-12-15T15:08:16Z</time>
      </trkpt>
      <trkpt lat="44.76614" lon="4.84038">
        <ele>121.26</ele>
        <time>2015-12-15T15:08:27Z</time>
      </trkpt>
      <trkpt lat="44.7662" lon="4.84033">
        <ele>122.71</ele>
        <time>2015-12-15T15:08:31Z</time>
      </trkpt>
      <trkpt lat="44.76636" lon="4.8403">
        <ele>123.19</ele>
        <time>2015-12-15T15:08:41Z</time>
      </trkpt>
      <trkpt lat="44.7664" lon="4.84027">
        <ele>123.67</ele>
        <time>2015-12-15T15:08:54Z</time>
      </trkpt>
      <trkpt lat="44.76641" lon="4.84024">
        <ele>122.71</ele>
        <time>2015-12-15T15:09:23Z</time>
      </trkpt>
      <trkpt lat="44.76642" lon="4.84026">
        <ele>123.19</ele>
        <time>2015-12-15T15:09:50Z</time>
      </trkpt>
      <trkpt lat="44.76646" lon="4.84024">
        <ele>122.71</ele>
        <time>2015-12-15T15:10:01Z</time>
      </trkpt>
      <trkpt lat="44.7668" lon="4.84037">
        <ele>122.22</ele>
        <time>2015-12-15T15:10:15Z</time>
      </trkpt>
      <trkpt lat="44.76704" lon="4.84043">
        <ele>121.26</ele>
        <time>2015-12-15T15:10:23Z</time>
      </trkpt>
      <trkpt lat="44.76705" lon="4.84038">
        <ele>121.26</ele>
        <time>2015-12-15T15:10:28Z</time>
      </trkpt>
      <trkpt lat="44.76731" lon="4.84037">
        <ele>120.78</ele>
        <time>2015-12-15T15:10:39Z</time>
      </trkpt>
      <trkpt lat="44.76739" lon="4.84045">
        <ele>120.78</ele>
        <time>2015-12-15T15:10:49Z</time>
      </trkpt>
      <trkpt lat="44.76742" lon="4.8405">
        <ele>120.3</ele>
        <time>2015-12-15T15:11:04Z</time>
      </trkpt>
      <trkpt lat="44.76745" lon="4.84051">
        <ele>120.3</ele>
        <time>2015-12-15T15:11:06Z</time>
      </trkpt>
      <trkpt lat="44.76762" lon="4.84056">
        <ele>119.34</ele>
        <time>2015-12-15T15:11:17Z</time>
      </trkpt>
      <trkpt lat="44.76763" lon="4.84053">
        <ele>119.34</ele>
        <time>2015-12-15T15:11:18Z</time>
      </trkpt>
      <trkpt lat="44.76764" lon="4.84049">
        <ele>118.86</ele>
        <time>2015-12-15T15:11:19Z</time>
      </trkpt>
      <trkpt lat="44.76767" lon="4.84038">
        <ele>118.86</ele>
        <time>2015-12-15T15:11:21Z</time>
      </trkpt>
      <trkpt lat="44.76768" lon="4.84032">
        <ele>118.38</ele>
        <time>2015-12-15T15:11:22Z</time>
      </trkpt>
      <trkpt lat="44.7677" lon="4.84024">
        <ele>118.38</ele>
        <time>2015-12-15T15:11:23Z</time>
      </trkpt>
      <trkpt lat="44.76772" lon="4.84017">
        <ele>118.38</ele>
        <time>2015-12-15T15:11:24Z</time>
      </trkpt>
      <trkpt lat="44.76781" lon="4.83993">
        <ele>117.9</ele>
        <time>2015-12-15T15:11:27Z</time>
      </trkpt>
      <trkpt lat="44.76803" lon="4.83922">
        <ele>116.46</ele>
        <time>2015-12-15T15:11:39Z</time>
      </trkpt>
      <trkpt lat="44.76842" lon="4.83819">
        <ele>115.5</ele>
        <time>2015-12-15T15:11:51Z</time>
      </trkpt>
      <trkpt lat="44.76878" lon="4.83698">
        <ele>115.5</ele>
        <time>2015-12-15T15:12:11Z</time>
      </trkpt>
      <trkpt lat="44.76894" lon="4.83643">
        <ele>115.01</ele>
        <time>2015-12-15T15:12:20Z</time>
      </trkpt>
      <trkpt lat="44.76924" lon="4.83547">
        <ele>114.53</ele>
        <time>2015-12-15T15:12:35Z</time>
      </trkpt>
      <trkpt lat="44.7696" lon="4.83439">
        <ele>113.57</ele>
        <time>2015-12-15T15:12:52Z</time>
      </trkpt>
      <trkpt lat="44.76997" lon="4.83327">
        <ele>113.57</ele>
        <time>2015-12-15T15:13:11Z</time>
      </trkpt>
      <trkpt lat="44.76999" lon="4.83322">
        <ele>113.57</ele>
        <time>2015-12-15T15:13:12Z</time>
      </trkpt>
      <trkpt lat="44.77002" lon="4.83317">
        <ele>113.09</ele>
        <time>2015-12-15T15:13:13Z</time>
      </trkpt>
      <trkpt lat="44.77006" lon="4.83314">
        <ele>112.61</ele>
        <time>2015-12-15T15:13:14Z</time>
      </trkpt>
      <trkpt lat="44.7701" lon="4.83313">
        <ele>112.61</ele>
        <time>2015-12-15T15:13:15Z</time>
      </trkpt>
      <trkpt lat="44.77015" lon="4.83313">
        <ele>112.61</ele>
        <time>2015-12-15T15:13:16Z</time>
      </trkpt>
      <trkpt lat="44.77019" lon="4.83312">
        <ele>112.61</ele>
        <time>2015-12-15T15:13:17Z</time>
      </trkpt>
      <trkpt lat="44.77091" lon="4.83326">
        <ele>113.09</ele>
        <time>2015-12-15T15:13:33Z</time>
      </trkpt>
      <trkpt lat="44.77098" lon="4.83324">
        <ele>113.09</ele>
        <time>2015-12-15T15:13:35Z</time>
      </trkpt>
      <trkpt lat="44.77101" lon="4.83321">
        <ele>113.09</ele>
        <time>2015-12-15T15:13:36Z</time>
      </trkpt>
      <trkpt lat="44.77102" lon="4.83317">
        <ele>113.09</ele>
        <time>2015-12-15T15:13:37Z</time>
      </trkpt>
      <trkpt lat="44.77103" lon="4.83311">
        <ele>112.61</ele>
        <time>2015-12-15T15:13:38Z</time>
      </trkpt>
      <trkpt lat="44.77105" lon="4.83307">
        <ele>113.09</ele>
        <time>2015-12-15T15:13:39Z</time>
      </trkpt>
      <trkpt lat="44.77107" lon="4.83304">
        <ele>113.09</ele>
        <time>2015-12-15T15:13:40Z</time>
      </trkpt>
      <trkpt lat="44.7711" lon="4.83301">
        <ele>112.61</ele>
        <time>2015-12-15T15:13:41Z</time>
      </trkpt>
      <trkpt lat="44.77113" lon="4.83299">
        <ele>112.61</ele>
        <time>2015-12-15T15:13:42Z</time>
      </trkpt>
      <trkpt lat="44.77117" lon="4.83297">
        <ele>112.61</ele>
        <time>2015-12-15T15:13:43Z</time>
      </trkpt>
      <trkpt lat="44.7712" lon="4.83295">
        <ele>112.61</ele>
        <time>2015-12-15T15:13:44Z</time>
      </trkpt>
      <trkpt lat="44.77122" lon="4.83292">
        <ele>113.09</ele>
        <time>2015-12-15T15:13:45Z</time>
      </trkpt>
      <trkpt lat="44.77124" lon="4.83288">
        <ele>112.61</ele>
        <time>2015-12-15T15:13:46Z</time>
      </trkpt>
      <trkpt lat="44.77124" lon="4.83283">
        <ele>113.09</ele>
        <time>2015-12-15T15:13:47Z</time>
      </trkpt>
      <trkpt lat="44.77124" lon="4.83277">
        <ele>113.09</ele>
        <time>2015-12-15T15:13:48Z</time>
      </trkpt>
      <trkpt lat="44.77123" lon="4.83272">
        <ele>113.09</ele>
        <time>2015-12-15T15:13:49Z</time>
      </trkpt>
      <trkpt lat="44.77127" lon="4.83242">
        <ele>113.09</ele>
        <time>2015-12-15T15:13:55Z</time>
      </trkpt>
      <trkpt lat="44.77127" lon="4.83238">
        <ele>112.61</ele>
        <time>2015-12-15T15:13:56Z</time>
      </trkpt>
      <trkpt lat="44.77126" lon="4.83236">
        <ele>112.13</ele>
        <time>2015-12-15T15:13:57Z</time>
      </trkpt>
      <trkpt lat="44.77124" lon="4.83234">
        <ele>112.61</ele>
        <time>2015-12-15T15:13:58Z</time>
      </trkpt>
      <trkpt lat="44.77123" lon="4.83232">
        <ele>112.13</ele>
        <time>2015-12-15T15:13:59Z</time>
      </trkpt>
      <trkpt lat="44.77121" lon="4.8323">
        <ele>113.09</ele>
        <time>2015-12-15T15:14:00Z</time>
      </trkpt>
      <trkpt lat="44.7712" lon="4.83226">
        <ele>112.61</ele>
        <time>2015-12-15T15:14:01Z</time>
      </trkpt>
      <trkpt lat="44.7712" lon="4.83222">
        <ele>112.61</ele>
        <time>2015-12-15T15:14:02Z</time>
      </trkpt>
      <trkpt lat="44.7712" lon="4.83217">
        <ele>112.61</ele>
        <time>2015-12-15T15:14:03Z</time>
      </trkpt>
      <trkpt lat="44.77119" lon="4.83154">
        <ele>113.09</ele>
        <time>2015-12-15T15:14:17Z</time>
      </trkpt>
      <trkpt lat="44.77119" lon="4.8309">
        <ele>112.13</ele>
        <time>2015-12-15T15:14:33Z</time>
      </trkpt>
      <trkpt lat="44.77122" lon="4.83088">
        <ele>112.13</ele>
        <time>2015-12-15T15:14:43Z</time>
      </trkpt>
      <trkpt lat="44.77124" lon="4.83082">
        <ele>112.61</ele>
        <time>2015-12-15T15:14:57Z</time>
      </trkpt>
      <trkpt lat="44.77119" lon="4.83088">
        <ele>111.17</ele>
        <time>2015-12-15T15:15:19Z</time>
      </trkpt>
      <trkpt lat="44.77119" lon="4.83088">
        <ele>111.65</ele>
        <time>2015-12-15T15:15:35Z</time>
      </trkpt>
      <trkpt lat="44.77116" lon="4.83089">
        <ele>111.65</ele>
        <time>2015-12-15T15:15:52Z</time>
      </trkpt>
      <trkpt lat="44.77119" lon="4.83084">
        <ele>112.13</ele>
        <time>2015-12-15T15:16:08Z</time>
      </trkpt>
      <trkpt lat="44.7712" lon="4.83083">
        <ele>112.13</ele>
        <time>2015-12-15T15:16:33Z</time>
      </trkpt>
      <trkpt lat="44.77113" lon="4.83084">
        <ele>112.13</ele>
        <time>2015-12-15T15:17:06Z</time>
      </trkpt>
      <trkpt lat="44.77113" lon="4.83085">
        <ele>111.65</ele>
        <time>2015-12-15T15:17:41Z</time>
      </trkpt>
      <trkpt lat="44.77115" lon="4.83086">
        <ele>112.61</ele>
        <time>2015-12-15T15:18:08Z</time>
      </trkpt>
      <trkpt lat="44.77115" lon="4.83085">
        <ele>108.77</ele>
        <time>2015-12-15T15:18:34Z</time>
      </trkpt>
      <trkpt lat="44.77115" lon="4.83086">
        <ele>113.57</ele>
        <time>2015-12-15T15:18:35Z</time>
      </trkpt>
    </trkseg>
  </trk>
</gpx>